Home > Products > Valid Products > TAF

000
FTUS45 KBOU 270525
TAFBJC
TAF
KBJC 270525Z 2706/2806 06009KT P6SM SCT080 BKN120
     FM270900 30010KT P6SM SCT080 BKN150
     FM271800 29010G18KT P6SM SCT100 BKN200
     FM280000 30010KT P6SM FEW100 SCT200=



000
FTUS45 KBOU 270525
TAFBJC
TAF
KBJC 270525Z 2706/2806 06009KT P6SM SCT080 BKN120
     FM270900 30010KT P6SM SCT080 BKN150
     FM271800 29010G18KT P6SM SCT100 BKN200
     FM280000 30010KT P6SM FEW100 SCT200=



000
FTUS45 KBOU 270525
TAFBJC
TAF
KBJC 270525Z 2706/2806 06009KT P6SM SCT080 BKN120
     FM270900 30010KT P6SM SCT080 BKN150
     FM271800 29010G18KT P6SM SCT100 BKN200
     FM280000 30010KT P6SM FEW100 SCT200=



000
FTUS45 KBOU 270525
TAFAPA
TAF
KAPA 270525Z 2706/2806 20005KT P6SM SCT080 BKN100
     FM270900 20010KT P6SM SCT080 BKN150
     FM271500 25007KT P6SM SCT100 BKN200
     FM271900 32010G17KT P6SM SCT100 BKN200
     FM280100 23005KT P6SM SCT120 BKN200
     FM280400 19007KT P6SM FEW120 SCT200=



000
FTUS45 KBOU 270525
TAFDEN
TAF
KDEN 270525Z 2706/2812 13009KT P6SM SCT080 BKN100
     FM270900 20011KT P6SM SCT080 BKN150
     FM271500 25007KT P6SM SCT100 BKN200
     FM271900 32011G18KT P6SM SCT100 BKN200
     FM280100 28005KT P6SM SCT120 BKN200
     FM280300 21011KT P6SM FEW120 SCT200=



000
FTUS45 KBOU 270525
TAFDEN
TAF
KDEN 270525Z 2706/2812 13009KT P6SM SCT080 BKN100
     FM270900 20011KT P6SM SCT080 BKN150
     FM271500 25007KT P6SM SCT100 BKN200
     FM271900 32011G18KT P6SM SCT100 BKN200
     FM280100 28005KT P6SM SCT120 BKN200
     FM280300 21011KT P6SM FEW120 SCT200=



000
FTUS45 KBOU 270525
TAFAPA
TAF
KAPA 270525Z 2706/2806 20005KT P6SM SCT080 BKN100
     FM270900 20010KT P6SM SCT080 BKN150
     FM271500 25007KT P6SM SCT100 BKN200
     FM271900 32010G17KT P6SM SCT100 BKN200
     FM280100 23005KT P6SM SCT120 BKN200
     FM280400 19007KT P6SM FEW120 SCT200=



000
FTUS45 KBOU 270525
TAFDEN
TAF
KDEN 270525Z 2706/2812 13009KT P6SM SCT080 BKN100
     FM270900 20011KT P6SM SCT080 BKN150
     FM271500 25007KT P6SM SCT100 BKN200
     FM271900 32011G18KT P6SM SCT100 BKN200
     FM280100 28005KT P6SM SCT120 BKN200
     FM280300 21011KT P6SM FEW120 SCT200=



000
FTUS45 KBOU 270525
TAFAPA
TAF
KAPA 270525Z 2706/2806 20005KT P6SM SCT080 BKN100
     FM270900 20010KT P6SM SCT080 BKN150
     FM271500 25007KT P6SM SCT100 BKN200
     FM271900 32010G17KT P6SM SCT100 BKN200
     FM280100 23005KT P6SM SCT120 BKN200
     FM280400 19007KT P6SM FEW120 SCT200=



000
FTUS45 KBOU 270525
TAFAPA
TAF
KAPA 270525Z 2706/2806 20005KT P6SM SCT080 BKN100
     FM270900 20010KT P6SM SCT080 BKN150
     FM271500 25007KT P6SM SCT100 BKN200
     FM271900 32010G17KT P6SM SCT100 BKN200
     FM280100 23005KT P6SM SCT120 BKN200
     FM280400 19007KT P6SM FEW120 SCT200=



000
FTUS45 KBOU 270525
TAFBJC
TAF
KBJC 270525Z 2706/2806 06009KT P6SM SCT080 BKN120
     FM270900 30010KT P6SM SCT080 BKN150
     FM271800 29010G18KT P6SM SCT100 BKN200
     FM280000 30010KT P6SM FEW100 SCT200=



000
FTUS45 KBOU 270525
TAFDEN
TAF
KDEN 270525Z 2706/2812 13009KT P6SM SCT080 BKN100
     FM270900 20011KT P6SM SCT080 BKN150
     FM271500 25007KT P6SM SCT100 BKN200
     FM271900 32011G18KT P6SM SCT100 BKN200
     FM280100 28005KT P6SM SCT120 BKN200
     FM280300 21011KT P6SM FEW120 SCT200=



000
FTUS45 KBOU 270259 AAC
TAFDEN
TAF AMD
KDEN 270259Z 2703/2806 10008KT P6SM SCT080 BKN100 BKN150
     FM270500 15007KT P6SM SCT080 BKN100
     FM270700 20011KT P6SM SCT080 BKN150
     FM271800 30012G20KT P6SM SCT100 BKN200
     FM280200 27008KT P6SM SCT120 BKN250=



000
FTUS45 KBOU 270259 AAC
TAFDEN
TAF AMD
KDEN 270259Z 2703/2806 10008KT P6SM SCT080 BKN100 BKN150
     FM270500 15007KT P6SM SCT080 BKN100
     FM270700 20011KT P6SM SCT080 BKN150
     FM271800 30012G20KT P6SM SCT100 BKN200
     FM280200 27008KT P6SM SCT120 BKN250=



000
FTUS45 KBOU 270259 AAC
TAFDEN
TAF AMD
KDEN 270259Z 2703/2806 10008KT P6SM SCT080 BKN100 BKN150
     FM270500 15007KT P6SM SCT080 BKN100
     FM270700 20011KT P6SM SCT080 BKN150
     FM271800 30012G20KT P6SM SCT100 BKN200
     FM280200 27008KT P6SM SCT120 BKN250=



000
FTUS45 KBOU 270126 AAA
TAFBJC
TAF AMD
KBJC 270126Z 2701/2724 28011G18KT P6SM SCT080 BKN100
     FM270300 26009KT P6SM BKN080 BKN120
     FM271700 29012G20KT P6SM SCT100 BKN200
     FM272100 32012KT P6SM SCT100 BKN150=



000
FTUS45 KBOU 270126 AAA
TAFBJC
TAF AMD
KBJC 270126Z 2701/2724 28011G18KT P6SM SCT080 BKN100
     FM270300 26009KT P6SM BKN080 BKN120
     FM271700 29012G20KT P6SM SCT100 BKN200
     FM272100 32012KT P6SM SCT100 BKN150=



000
FTUS45 KBOU 270126 AAA
TAFBJC
TAF AMD
KBJC 270126Z 2701/2724 28011G18KT P6SM SCT080 BKN100
     FM270300 26009KT P6SM BKN080 BKN120
     FM271700 29012G20KT P6SM SCT100 BKN200
     FM272100 32012KT P6SM SCT100 BKN150=



000
FTUS45 KBOU 270126 AAA
TAFBJC
TAF AMD
KBJC 270126Z 2701/2724 28011G18KT P6SM SCT080 BKN100
     FM270300 26009KT P6SM BKN080 BKN120
     FM271700 29012G20KT P6SM SCT100 BKN200
     FM272100 32012KT P6SM SCT100 BKN150=



000
FTUS45 KBOU 270123 AAB
TAFAPA
TAF AMD
KAPA 270123Z 2701/2724 31012KT P6SM SCT080 BKN120
     FM270300 VRB04KT P6SM BKN080 BKN120
     FM270700 20008KT P6SM SCT080 BKN150
     FM271700 31011KT P6SM SCT100 BKN200=



000
FTUS45 KBOU 270123 AAB
TAFAPA
TAF AMD
KAPA 270123Z 2701/2724 31012KT P6SM SCT080 BKN120
     FM270300 VRB04KT P6SM BKN080 BKN120
     FM270700 20008KT P6SM SCT080 BKN150
     FM271700 31011KT P6SM SCT100 BKN200=



000
FTUS45 KBOU 270123 AAB
TAFAPA
TAF AMD
KAPA 270123Z 2701/2724 31012KT P6SM SCT080 BKN120
     FM270300 VRB04KT P6SM BKN080 BKN120
     FM270700 20008KT P6SM SCT080 BKN150
     FM271700 31011KT P6SM SCT100 BKN200=



000
FTUS45 KBOU 270122 AAB
TAFDEN
TAF AMD
KDEN 270122Z 2701/2806 33006KT P6SM BKN100 BKN150
     FM270300 12005KT P6SM SCT080 BKN100 BKN150
     FM270700 20011KT P6SM SCT080 BKN150
     FM271800 30012G20KT P6SM SCT100 BKN200
     FM280200 27008KT P6SM SCT120 BKN250=



000
FTUS45 KBOU 270122 AAB
TAFDEN
TAF AMD
KDEN 270122Z 2701/2806 33006KT P6SM BKN100 BKN150
     FM270300 12005KT P6SM SCT080 BKN100 BKN150
     FM270700 20011KT P6SM SCT080 BKN150
     FM271800 30012G20KT P6SM SCT100 BKN200
     FM280200 27008KT P6SM SCT120 BKN250=



000
FTUS45 KBOU 262352 AAA
TAFAPA
TAF AMD
KAPA 262352Z 2700/2724 36008KT P6SM SCT080 BKN120
     FM270200 26009KT P6SM BKN080 BKN120
     FM270700 21008KT P6SM SCT080 BKN150
     FM271700 31011KT P6SM SCT100 BKN200=



000
FTUS45 KBOU 262352 AAA
TAFAPA
TAF AMD
KAPA 262352Z 2700/2724 36008KT P6SM SCT080 BKN120
     FM270200 26009KT P6SM BKN080 BKN120
     FM270700 21008KT P6SM SCT080 BKN150
     FM271700 31011KT P6SM SCT100 BKN200=



000
FTUS45 KBOU 262352 AAA
TAFAPA
TAF AMD
KAPA 262352Z 2700/2724 36008KT P6SM SCT080 BKN120
     FM270200 26009KT P6SM BKN080 BKN120
     FM270700 21008KT P6SM SCT080 BKN150
     FM271700 31011KT P6SM SCT100 BKN200=



000
FTUS45 KBOU 262352 AAA
TAFAPA
TAF AMD
KAPA 262352Z 2700/2724 36008KT P6SM SCT080 BKN120
     FM270200 26009KT P6SM BKN080 BKN120
     FM270700 21008KT P6SM SCT080 BKN150
     FM271700 31011KT P6SM SCT100 BKN200=



000
FTUS45 KBOU 262351 AAA
TAFDEN
TAF AMD
KDEN 262351Z 2700/2806 35008KT P6SM SCT080 BKN120
     FM270200 26009KT P6SM BKN080 BKN120
     FM270700 23009KT P6SM SCT080 BKN150
     FM271800 30012G20KT P6SM SCT100 BKN200
     FM280200 27008KT P6SM SCT120 BKN250=



000
FTUS45 KBOU 262351 AAA
TAFDEN
TAF AMD
KDEN 262351Z 2700/2806 35008KT P6SM SCT080 BKN120
     FM270200 26009KT P6SM BKN080 BKN120
     FM270700 23009KT P6SM SCT080 BKN150
     FM271800 30012G20KT P6SM SCT100 BKN200
     FM280200 27008KT P6SM SCT120 BKN250=



000
FTUS45 KBOU 262351 AAA
TAFDEN
TAF AMD
KDEN 262351Z 2700/2806 35008KT P6SM SCT080 BKN120
     FM270200 26009KT P6SM BKN080 BKN120
     FM270700 23009KT P6SM SCT080 BKN150
     FM271800 30012G20KT P6SM SCT100 BKN200
     FM280200 27008KT P6SM SCT120 BKN250=



000
FTUS45 KBOU 262351 AAA
TAFDEN
TAF AMD
KDEN 262351Z 2700/2806 35008KT P6SM SCT080 BKN120
     FM270200 26009KT P6SM BKN080 BKN120
     FM270700 23009KT P6SM SCT080 BKN150
     FM271800 30012G20KT P6SM SCT100 BKN200
     FM280200 27008KT P6SM SCT120 BKN250=



000
FTUS45 KBOU 262320
TAFDEN
TAF
KDEN 262320Z 2700/2806 31011KT P6SM SCT080 BKN120
     FM270200 26009KT P6SM BKN080 BKN120
     FM270700 23009KT P6SM SCT080 BKN150
     FM271800 30012G20KT P6SM SCT100 BKN200
     FM280200 27008KT P6SM SCT120 BKN250=



000
FTUS45 KBOU 262320
TAFBJC
TAF
KBJC 262320Z 2700/2724 31010G15KT P6SM SCT080 BKN180
     FM270200 26009KT P6SM BKN080 BKN120
     FM271700 29012G20KT P6SM SCT100 BKN200
     FM272100 32012KT P6SM SCT100 BKN150=



000
FTUS45 KBOU 262320
TAFAPA
TAF
KAPA 262320Z 2700/2724 31011KT P6SM SCT080 BKN120
     FM270200 26009KT P6SM BKN080 BKN120
     FM270700 21008KT P6SM SCT080 BKN150
     FM271700 31011KT P6SM SCT100 BKN200=



000
FTUS45 KBOU 262320
TAFDEN
TAF
KDEN 262320Z 2700/2806 31011KT P6SM SCT080 BKN120
     FM270200 26009KT P6SM BKN080 BKN120
     FM270700 23009KT P6SM SCT080 BKN150
     FM271800 30012G20KT P6SM SCT100 BKN200
     FM280200 27008KT P6SM SCT120 BKN250=



000
FTUS45 KBOU 262320
TAFBJC
TAF
KBJC 262320Z 2700/2724 31010G15KT P6SM SCT080 BKN180
     FM270200 26009KT P6SM BKN080 BKN120
     FM271700 29012G20KT P6SM SCT100 BKN200
     FM272100 32012KT P6SM SCT100 BKN150=



000
FTUS45 KBOU 262320
TAFBJC
TAF
KBJC 262320Z 2700/2724 31010G15KT P6SM SCT080 BKN180
     FM270200 26009KT P6SM BKN080 BKN120
     FM271700 29012G20KT P6SM SCT100 BKN200
     FM272100 32012KT P6SM SCT100 BKN150=



000
FTUS45 KBOU 262320
TAFBJC
TAF
KBJC 262320Z 2700/2724 31010G15KT P6SM SCT080 BKN180
     FM270200 26009KT P6SM BKN080 BKN120
     FM271700 29012G20KT P6SM SCT100 BKN200
     FM272100 32012KT P6SM SCT100 BKN150=



000
FTUS45 KBOU 262320
TAFAPA
TAF
KAPA 262320Z 2700/2724 31011KT P6SM SCT080 BKN120
     FM270200 26009KT P6SM BKN080 BKN120
     FM270700 21008KT P6SM SCT080 BKN150
     FM271700 31011KT P6SM SCT100 BKN200=



000
FTUS45 KBOU 262320
TAFAPA
TAF
KAPA 262320Z 2700/2724 31011KT P6SM SCT080 BKN120
     FM270200 26009KT P6SM BKN080 BKN120
     FM270700 21008KT P6SM SCT080 BKN150
     FM271700 31011KT P6SM SCT100 BKN200=



000
FTUS45 KBOU 262320
TAFDEN
TAF
KDEN 262320Z 2700/2806 31011KT P6SM SCT080 BKN120
     FM270200 26009KT P6SM BKN080 BKN120
     FM270700 23009KT P6SM SCT080 BKN150
     FM271800 30012G20KT P6SM SCT100 BKN200
     FM280200 27008KT P6SM SCT120 BKN250=



000
FTUS45 KBOU 262320
TAFDEN
TAF
KDEN 262320Z 2700/2806 31011KT P6SM SCT080 BKN120
     FM270200 26009KT P6SM BKN080 BKN120
     FM270700 23009KT P6SM SCT080 BKN150
     FM271800 30012G20KT P6SM SCT100 BKN200
     FM280200 27008KT P6SM SCT120 BKN250=



000
FTUS45 KBOU 262303 AAB
TAFDEN
TAF AMD
KDEN 262303Z 2623/2724 35014KT P6SM SCT120 BKN220
     FM270000 31011KT P6SM SCT080 BKN120
     FM270200 26009KT P6SM BKN080 BKN120
     FM270500 23009KT P6SM SCT080 BKN150
     FM271800 30012G20KT P6SM SCT100 BKN200=



000
FTUS45 KBOU 262303 AAB
TAFDEN
TAF AMD
KDEN 262303Z 2623/2724 35014KT P6SM SCT120 BKN220
     FM270000 31011KT P6SM SCT080 BKN120
     FM270200 26009KT P6SM BKN080 BKN120
     FM270500 23009KT P6SM SCT080 BKN150
     FM271800 30012G20KT P6SM SCT100 BKN200=



000
FTUS45 KBOU 262202 AAC
TAFAPA
TAF AMD
KAPA 262202Z 2622/2718 31010G15KT P6SM SCT120 BKN220
     FM270000 31011KT P6SM SCT080 BKN120
     FM270200 26009KT P6SM BKN080 BKN120
     FM270500 21008KT P6SM SCT080 BKN150
     FM271700 31011KT P6SM SCT100 BKN200=



000
FTUS45 KBOU 262202 AAC
TAFAPA
TAF AMD
KAPA 262202Z 2622/2718 31010G15KT P6SM SCT120 BKN220
     FM270000 31011KT P6SM SCT080 BKN120
     FM270200 26009KT P6SM BKN080 BKN120
     FM270500 21008KT P6SM SCT080 BKN150
     FM271700 31011KT P6SM SCT100 BKN200=



000
FTUS45 KBOU 262201 AAB
TAFAPA
TAF AMD
KAPA 262201Z 2622/2718 01010G15KT P6SM SCT120 BKN220
     FM270000 31011KT P6SM SCT080 BKN120
     FM270200 26009KT P6SM BKN080 BKN120
     FM270500 21008KT P6SM SCT080 BKN150
     FM271700 31011KT P6SM SCT100 BKN200=



000
FTUS45 KBOU 262201 AAB
TAFAPA
TAF AMD
KAPA 262201Z 2622/2718 01010G15KT P6SM SCT120 BKN220
     FM270000 31011KT P6SM SCT080 BKN120
     FM270200 26009KT P6SM BKN080 BKN120
     FM270500 21008KT P6SM SCT080 BKN150
     FM271700 31011KT P6SM SCT100 BKN200=



000
FTUS45 KBOU 262105 AAA
TAFBJC
TAF AMD
KBJC 262105Z 2621/2718 30012KT P6SM SCT090 BKN200
     FM270000 30011KT P6SM SCT080 BKN120
     FM270200 26009KT P6SM BKN080 BKN120
     FM271700 29012G20KT P6SM SCT100 BKN200=



000
FTUS45 KBOU 262105 AAA
TAFBJC
TAF AMD
KBJC 262105Z 2621/2718 30012KT P6SM SCT090 BKN200
     FM270000 30011KT P6SM SCT080 BKN120
     FM270200 26009KT P6SM BKN080 BKN120
     FM271700 29012G20KT P6SM SCT100 BKN200=



000
FTUS45 KBOU 262104 AAA
TAFAPA
TAF AMD
KAPA 262104Z 2621/2718 01012KT P6SM SCT120 BKN220
     FM270000 31011KT P6SM SCT080 BKN120
     FM270200 26009KT P6SM BKN080 BKN120
     FM270500 21008KT P6SM SCT080 BKN150
     FM271700 31011KT P6SM SCT100 BKN200=



000
FTUS45 KBOU 262104 AAA
TAFDEN
TAF AMD
KDEN 262104Z 2621/2724 01010KT P6SM FEW090 SCT120 BKN220
     FM262200 33014G22KT P6SM SCT120 BKN220
     FM270000 31011KT P6SM SCT080 BKN120
     FM270200 26009KT P6SM BKN080 BKN120
     FM270500 23009KT P6SM SCT080 BKN150
     FM271800 30012G20KT P6SM SCT100 BKN200=



000
FTUS45 KBOU 262104 AAA
TAFAPA
TAF AMD
KAPA 262104Z 2621/2718 01012KT P6SM SCT120 BKN220
     FM270000 31011KT P6SM SCT080 BKN120
     FM270200 26009KT P6SM BKN080 BKN120
     FM270500 21008KT P6SM SCT080 BKN150
     FM271700 31011KT P6SM SCT100 BKN200=



000
FTUS45 KBOU 262104 AAA
TAFDEN
TAF AMD
KDEN 262104Z 2621/2724 01010KT P6SM FEW090 SCT120 BKN220
     FM262200 33014G22KT P6SM SCT120 BKN220
     FM270000 31011KT P6SM SCT080 BKN120
     FM270200 26009KT P6SM BKN080 BKN120
     FM270500 23009KT P6SM SCT080 BKN150
     FM271800 30012G20KT P6SM SCT100 BKN200=



000
FTUS45 KBOU 261732
TAFAPA
TAF
KAPA 261732Z 2618/2718 30008KT P6SM SCT090 BKN150
     FM262100 33012G20KT P6SM SCT090 BKN150
     FM270000 31011KT P6SM SCT080 BKN120
     FM270200 26009KT P6SM BKN080 BKN120
     FM270500 21008KT P6SM SCT080 BKN150
     FM271700 31011KT P6SM SCT100 BKN200=



000
FTUS45 KBOU 261732
TAFBJC
TAF
KBJC 261732Z 2618/2718 30010KT P6SM SCT090 BKN150
     FM262100 32012G20KT P6SM SCT090 BKN150
     FM270000 30011KT P6SM SCT080 BKN120
     FM270200 26009KT P6SM BKN080 BKN120
     FM271700 29012G20KT P6SM SCT100 BKN200=



000
FTUS45 KBOU 261732
TAFBJC
TAF
KBJC 261732Z 2618/2718 30010KT P6SM SCT090 BKN150
     FM262100 32012G20KT P6SM SCT090 BKN150
     FM270000 30011KT P6SM SCT080 BKN120
     FM270200 26009KT P6SM BKN080 BKN120
     FM271700 29012G20KT P6SM SCT100 BKN200=



000
FTUS45 KBOU 261732
TAFDEN
TAF
KDEN 261732Z 2618/2724 26012KT P6SM FEW080 SCT150 BKN220
     FM261900 30011KT P6SM SCT090 BKN150
     FM262200 33014G22KT P6SM SCT090 BKN150
     FM270000 31011KT P6SM SCT080 BKN120
     FM270200 26009KT P6SM BKN080 BKN120
     FM270500 23009KT P6SM SCT080 BKN150
     FM271800 30012G20KT P6SM SCT100 BKN200=



000
FTUS45 KBOU 261732
TAFAPA
TAF
KAPA 261732Z 2618/2718 30008KT P6SM SCT090 BKN150
     FM262100 33012G20KT P6SM SCT090 BKN150
     FM270000 31011KT P6SM SCT080 BKN120
     FM270200 26009KT P6SM BKN080 BKN120
     FM270500 21008KT P6SM SCT080 BKN150
     FM271700 31011KT P6SM SCT100 BKN200=



000
FTUS45 KBOU 261732
TAFDEN
TAF
KDEN 261732Z 2618/2724 26012KT P6SM FEW080 SCT150 BKN220
     FM261900 30011KT P6SM SCT090 BKN150
     FM262200 33014G22KT P6SM SCT090 BKN150
     FM270000 31011KT P6SM SCT080 BKN120
     FM270200 26009KT P6SM BKN080 BKN120
     FM270500 23009KT P6SM SCT080 BKN150
     FM271800 30012G20KT P6SM SCT100 BKN200=



000
FTUS45 KBOU 261732
TAFBJC
TAF
KBJC 261732Z 2618/2718 30010KT P6SM SCT090 BKN150
     FM262100 32012G20KT P6SM SCT090 BKN150
     FM270000 30011KT P6SM SCT080 BKN120
     FM270200 26009KT P6SM BKN080 BKN120
     FM271700 29012G20KT P6SM SCT100 BKN200=



000
FTUS45 KBOU 261732
TAFAPA
TAF
KAPA 261732Z 2618/2718 30008KT P6SM SCT090 BKN150
     FM262100 33012G20KT P6SM SCT090 BKN150
     FM270000 31011KT P6SM SCT080 BKN120
     FM270200 26009KT P6SM BKN080 BKN120
     FM270500 21008KT P6SM SCT080 BKN150
     FM271700 31011KT P6SM SCT100 BKN200=



000
FTUS45 KBOU 261732
TAFDEN
TAF
KDEN 261732Z 2618/2724 26012KT P6SM FEW080 SCT150 BKN220
     FM261900 30011KT P6SM SCT090 BKN150
     FM262200 33014G22KT P6SM SCT090 BKN150
     FM270000 31011KT P6SM SCT080 BKN120
     FM270200 26009KT P6SM BKN080 BKN120
     FM270500 23009KT P6SM SCT080 BKN150
     FM271800 30012G20KT P6SM SCT100 BKN200=



000
FTUS45 KBOU 261732
TAFAPA
TAF
KAPA 261732Z 2618/2718 30008KT P6SM SCT090 BKN150
     FM262100 33012G20KT P6SM SCT090 BKN150
     FM270000 31011KT P6SM SCT080 BKN120
     FM270200 26009KT P6SM BKN080 BKN120
     FM270500 21008KT P6SM SCT080 BKN150
     FM271700 31011KT P6SM SCT100 BKN200=



000
FTUS45 KBOU 261732
TAFBJC
TAF
KBJC 261732Z 2618/2718 30010KT P6SM SCT090 BKN150
     FM262100 32012G20KT P6SM SCT090 BKN150
     FM270000 30011KT P6SM SCT080 BKN120
     FM270200 26009KT P6SM BKN080 BKN120
     FM271700 29012G20KT P6SM SCT100 BKN200=



000
FTUS45 KBOU 261732
TAFDEN
TAF
KDEN 261732Z 2618/2724 26012KT P6SM FEW080 SCT150 BKN220
     FM261900 30011KT P6SM SCT090 BKN150
     FM262200 33014G22KT P6SM SCT090 BKN150
     FM270000 31011KT P6SM SCT080 BKN120
     FM270200 26009KT P6SM BKN080 BKN120
     FM270500 23009KT P6SM SCT080 BKN150
     FM271800 30012G20KT P6SM SCT100 BKN200=



000
FTUS45 KBOU 261658 AAB
TAFDEN
TAF AMD
KDEN 261658Z 2617/2718 26012KT P6SM FEW090 SCT150 BKN220
     FM261900 30013KT P6SM SCT090 BKN150
     FM262000 33014G22KT P6SM SCT090 BKN120
     FM270200 23007KT P6SM SCT090 BKN120
     FM270800 23010KT P6SM SCT090=



000
FTUS45 KBOU 261658 AAB
TAFDEN
TAF AMD
KDEN 261658Z 2617/2718 26012KT P6SM FEW090 SCT150 BKN220
     FM261900 30013KT P6SM SCT090 BKN150
     FM262000 33014G22KT P6SM SCT090 BKN120
     FM270200 23007KT P6SM SCT090 BKN120
     FM270800 23010KT P6SM SCT090=



000
FTUS45 KBOU 261658 AAB
TAFDEN
TAF AMD
KDEN 261658Z 2617/2718 26012KT P6SM FEW090 SCT150 BKN220
     FM261900 30013KT P6SM SCT090 BKN150
     FM262000 33014G22KT P6SM SCT090 BKN120
     FM270200 23007KT P6SM SCT090 BKN120
     FM270800 23010KT P6SM SCT090=



000
FTUS45 KBOU 261506 AAA
TAFDEN
TAF AMD
KDEN 261506Z 2615/2718 23010KT P6SM FEW090 SCT150
     FM261800 33012KT P6SM FEW090 SCT150
     FM270200 23007KT P6SM SCT090 BKN150
     FM270800 23010KT P6SM SCT090=



000
FTUS45 KBOU 261506 AAA
TAFDEN
TAF AMD
KDEN 261506Z 2615/2718 23010KT P6SM FEW090 SCT150
     FM261800 33012KT P6SM FEW090 SCT150
     FM270200 23007KT P6SM SCT090 BKN150
     FM270800 23010KT P6SM SCT090=



000
FTUS45 KBOU 261120
TAFBJC
TAF
KBJC 261120Z 2612/2712 30010KT P6SM FEW090 SCT150
     FM261800 32012KT P6SM BKN090 BKN150
     FM270400 29007KT P6SM SCT090 BKN150=



000
FTUS45 KBOU 261120
TAFAPA
TAF
KAPA 261120Z 2612/2712 23007KT P6SM FEW150
     FM261500 25007KT P6SM FEW090 BKN150
     FM261800 34011KT P6SM BKN090 BKN150
     FM270200 24006KT P6SM SCT090 BKN150=



000
FTUS45 KBOU 261120
TAFDEN
TAF
KDEN 261120Z 2612/2718 21009KT P6SM FEW150
     FM261400 23009KT P6SM FEW090 BKN150
     FM261800 33012KT P6SM BKN090 BKN150
     FM270200 23007KT P6SM SCT090 BKN150
     FM270800 23010KT P6SM SCT090=



000
FTUS45 KBOU 261120
TAFBJC
TAF
KBJC 261120Z 2612/2712 30010KT P6SM FEW090 SCT150
     FM261800 32012KT P6SM BKN090 BKN150
     FM270400 29007KT P6SM SCT090 BKN150=



000
FTUS45 KBOU 261120
TAFAPA
TAF
KAPA 261120Z 2612/2712 23007KT P6SM FEW150
     FM261500 25007KT P6SM FEW090 BKN150
     FM261800 34011KT P6SM BKN090 BKN150
     FM270200 24006KT P6SM SCT090 BKN150=



000
FTUS45 KBOU 260902 AAA
TAFDEN
TAF AMD
KDEN 260902Z 2609/2712 20010KT P6SM FEW080 SCT140
     FM261300 23007KT P6SM FEW080 BKN200
     FM261800 33012KT P6SM SCT080 BKN200
     FM270200 23010KT P6SM FEW090 BKN200
     FM270600 21011KT P6SM FEW090 SCT200=



000
FTUS45 KBOU 260902 AAA
TAFDEN
TAF AMD
KDEN 260902Z 2609/2712 20010KT P6SM FEW080 SCT140
     FM261300 23007KT P6SM FEW080 BKN200
     FM261800 33012KT P6SM SCT080 BKN200
     FM270200 23010KT P6SM FEW090 BKN200
     FM270600 21011KT P6SM FEW090 SCT200=



000
FTUS45 KBOU 260520
TAFAPA
TAF
KAPA 260520Z 2606/2706 22007KT P6SM SCT080 SCT120
     FM261500 25007KT P6SM FEW080 BKN200
     FM261800 34011KT P6SM SCT080 BKN200
     FM270200 23007KT P6SM FEW090 BKN200=



000
FTUS45 KBOU 260520
TAFBJC
TAF
KBJC 260520Z 2606/2706 28006KT P6SM SCT080 BKN120
     FM261800 34009KT P6SM SCT080 BKN200
     FM270200 25006KT P6SM FEW090 BKN200=



000
FTUS45 KBOU 260520
TAFAPA
TAF
KAPA 260520Z 2606/2706 22007KT P6SM SCT080 SCT120
     FM261500 25007KT P6SM FEW080 BKN200
     FM261800 34011KT P6SM SCT080 BKN200
     FM270200 23007KT P6SM FEW090 BKN200=



000
FTUS45 KBOU 260520
TAFBJC
TAF
KBJC 260520Z 2606/2706 28006KT P6SM SCT080 BKN120
     FM261800 34009KT P6SM SCT080 BKN200
     FM270200 25006KT P6SM FEW090 BKN200=



000
FTUS45 KBOU 260520
TAFDEN
TAF
KDEN 260520Z 2606/2712 18010KT P6SM SCT080 BKN120
     FM261100 23007KT P6SM FEW080 BKN200
     FM261800 33012KT P6SM SCT080 BKN200
     FM270200 23010KT P6SM FEW090 BKN200
     FM270600 21011KT P6SM FEW090 SCT200=



000
FTUS45 KBOU 260520
TAFDEN
TAF
KDEN 260520Z 2606/2712 18010KT P6SM SCT080 BKN120
     FM261100 23007KT P6SM FEW080 BKN200
     FM261800 33012KT P6SM SCT080 BKN200
     FM270200 23010KT P6SM FEW090 BKN200
     FM270600 21011KT P6SM FEW090 SCT200=



000
FTUS45 KBOU 260337 AAD
TAFDEN
TAF AMD
KDEN 260337Z 2604/2706 08007KT P6SM FEW020 BKN060
     FM260500 15007KT P6SM SCT020 BKN080
     FM260700 22010KT P6SM FEW080 SCT200
     FM261800 31012KT P6SM SCT060 BKN180
     FM270300 27012KT P6SM SCT090 BKN200=



000
FTUS45 KBOU 260337 AAD
TAFDEN
TAF AMD
KDEN 260337Z 2604/2706 08007KT P6SM FEW020 BKN060
     FM260500 15007KT P6SM SCT020 BKN080
     FM260700 22010KT P6SM FEW080 SCT200
     FM261800 31012KT P6SM SCT060 BKN180
     FM270300 27012KT P6SM SCT090 BKN200=



000
FTUS45 KBOU 260337 AAD
TAFDEN
TAF AMD
KDEN 260337Z 2604/2706 08007KT P6SM FEW020 BKN060
     FM260500 15007KT P6SM SCT020 BKN080
     FM260700 22010KT P6SM FEW080 SCT200
     FM261800 31012KT P6SM SCT060 BKN180
     FM270300 27012KT P6SM SCT090 BKN200=



000
FTUS45 KBOU 260257 AAB
TAFAPA
TAF AMD
KAPA 260257Z 2603/2624 24010KT P6SM FEW080 SCT130 BKN220
     FM261500 24012KT P6SM SCT080 BKN200
     FM261800 31012KT P6SM SCT080 BKN200=



000
FTUS45 KBOU 260257 AAB
TAFAPA
TAF AMD
KAPA 260257Z 2603/2624 24010KT P6SM FEW080 SCT130 BKN220
     FM261500 24012KT P6SM SCT080 BKN200
     FM261800 31012KT P6SM SCT080 BKN200=



000
FTUS45 KBOU 260253 AAC
TAFDEN
TAF AMD
KDEN 260253Z 2603/2706 01011KT P6SM VCSH SCT015 BKN060
     FM260400 27007KT P6SM SCT020 BKN080
     FM260600 22010KT P6SM FEW060 SCT100 BKN200
     FM261800 31012KT P6SM SCT060 BKN180
     FM270300 27012KT P6SM SCT090 BKN200=



000
FTUS45 KBOU 260253 AAC
TAFDEN
TAF AMD
KDEN 260253Z 2603/2706 01011KT P6SM VCSH SCT015 BKN060
     FM260400 27007KT P6SM SCT020 BKN080
     FM260600 22010KT P6SM FEW060 SCT100 BKN200
     FM261800 31012KT P6SM SCT060 BKN180
     FM270300 27012KT P6SM SCT090 BKN200=



000
FTUS45 KBOU 260253 AAC
TAFDEN
TAF AMD
KDEN 260253Z 2603/2706 01011KT P6SM VCSH SCT015 BKN060
     FM260400 27007KT P6SM SCT020 BKN080
     FM260600 22010KT P6SM FEW060 SCT100 BKN200
     FM261800 31012KT P6SM SCT060 BKN180
     FM270300 27012KT P6SM SCT090 BKN200=



000
FTUS45 KBOU 260253 AAC
TAFDEN
TAF AMD
KDEN 260253Z 2603/2706 01011KT P6SM VCSH SCT015 BKN060
     FM260400 27007KT P6SM SCT020 BKN080
     FM260600 22010KT P6SM FEW060 SCT100 BKN200
     FM261800 31012KT P6SM SCT060 BKN180
     FM270300 27012KT P6SM SCT090 BKN200=



000
FTUS45 KBOU 260217 AAA
TAFAPA
TAF AMD
KAPA 260217Z 2602/2624 30010KT P6SM SCT030 BKN090
      TEMPO 2602/2604 3SM -SHSN BKN025
     FM260400 27007KT P6SM SCT030 BKN060
     FM260700 19010KT P6SM FEW050 SCT100 BKN220
     FM261500 24012KT P6SM SCT080 BKN200
     FM261800 31012KT P6SM SCT080 BKN200=



000
FTUS45 KBOU 260217 AAA
TAFAPA
TAF AMD
KAPA 260217Z 2602/2624 30010KT P6SM SCT030 BKN090
      TEMPO 2602/2604 3SM -SHSN BKN025
     FM260400 27007KT P6SM SCT030 BKN060
     FM260700 19010KT P6SM FEW050 SCT100 BKN220
     FM261500 24012KT P6SM SCT080 BKN200
     FM261800 31012KT P6SM SCT080 BKN200=



000
FTUS45 KBOU 260217 AAA
TAFBJC
TAF AMD
KBJC 260217Z 2602/2624 25007KT P6SM SCT050 BKN180
     FM261800 31012KT P6SM SCT090 BKN220=



000
FTUS45 KBOU 260217 AAA
TAFBJC
TAF AMD
KBJC 260217Z 2602/2624 25007KT P6SM SCT050 BKN180
     FM261800 31012KT P6SM SCT090 BKN220=



000
FTUS45 KBOU 260217 AAB
TAFDEN
TAF AMD
KDEN 260217Z 2602/2706 35011KT P6SM VCSH SCT015 BKN080
      TEMPO 2602/2603 3SM -SHRASN BKN020
     FM260400 27007KT P6SM SCT020 BKN050
     FM260600 22010KT P6SM FEW060 SCT100 BKN200
     FM261800 31012KT P6SM SCT060 BKN180
     FM270300 27012KT P6SM SCT090 BKN200=



000
FTUS45 KBOU 260215 AAA
TAFDEN
TAF AMD
KDEN 260215Z 2602/2706 31011KT P6SM VCSH SCT015 BKN080
      TEMPO 2602/2603 3SM -SHRASN BKN020
     FM260400 27007KT P6SM SCT020 BKN050
     FM260600 22010KT P6SM FEW060 SCT100 BKN200
     FM261800 31012KT P6SM SCT060 BKN180
     FM270300 27012KT P6SM SCT090 BKN200=



000
FTUS45 KBOU 260215 AAA
TAFDEN
TAF AMD
KDEN 260215Z 2602/2706 31011KT P6SM VCSH SCT015 BKN080
      TEMPO 2602/2603 3SM -SHRASN BKN020
     FM260400 27007KT P6SM SCT020 BKN050
     FM260600 22010KT P6SM FEW060 SCT100 BKN200
     FM261800 31012KT P6SM SCT060 BKN180
     FM270300 27012KT P6SM SCT090 BKN200=



000
FTUS45 KBOU 252329 CCA
TAFDEN
TAF COR
KDEN 252329Z 2600/2706 31011KT P6SM VCSH SCT015 BKN080
      TEMPO 2600/2602 3SM -SHSN BKN020
     FM260300 27007KT P6SM SCT050 BKN080
     FM260600 22010KT P6SM FEW050 SCT100 BKN200
     FM261800 31012KT P6SM SCT060 BKN180
     FM270300 27012KT P6SM SCT090 BKN200=



000
FTUS45 KBOU 252329 CCA
TAFDEN
TAF COR
KDEN 252329Z 2600/2706 31011KT P6SM VCSH SCT015 BKN080
      TEMPO 2600/2602 3SM -SHSN BKN020
     FM260300 27007KT P6SM SCT050 BKN080
     FM260600 22010KT P6SM FEW050 SCT100 BKN200
     FM261800 31012KT P6SM SCT060 BKN180
     FM270300 27012KT P6SM SCT090 BKN200=



000
FTUS45 KBOU 252320
TAFDEN
TAF
KDEN 252320Z 2600/2706 31011KT P6SM VCSH SCT015 BKN080
      TEMPO 2600/2602 3SM -SHSN BKN020
     FM260300 17007KT P6SM SCT050 BKN080
     FM260600 22010KT P6SM FEW050 SCT100 BKN200
     FM261800 31012KT P6SM SCT060 BKN180
     FM270300 27012KT P6SM SCT090 BKN200=



000
FTUS45 KBOU 252320
TAFDEN
TAF
KDEN 252320Z 2600/2706 31011KT P6SM VCSH SCT015 BKN080
      TEMPO 2600/2602 3SM -SHSN BKN020
     FM260300 17007KT P6SM SCT050 BKN080
     FM260600 22010KT P6SM FEW050 SCT100 BKN200
     FM261800 31012KT P6SM SCT060 BKN180
     FM270300 27012KT P6SM SCT090 BKN200=



000
FTUS45 KBOU 252320
TAFDEN
TAF
KDEN 252320Z 2600/2706 31011KT P6SM VCSH SCT015 BKN080
      TEMPO 2600/2602 3SM -SHSN BKN020
     FM260300 17007KT P6SM SCT050 BKN080
     FM260600 22010KT P6SM FEW050 SCT100 BKN200
     FM261800 31012KT P6SM SCT060 BKN180
     FM270300 27012KT P6SM SCT090 BKN200=



000
FTUS45 KBOU 252320
TAFBJC
TAF
KBJC 252320Z 2600/2624 20008KT P6SM VCSH SCT035 BKN090
     FM260200 25007KT P6SM SCT050 BKN180
     FM261800 31012KT P6SM SCT090 BKN220=



000
FTUS45 KBOU 252320
TAFAPA
TAF
KAPA 252320Z 2600/2624 30010KT P6SM VCSH SCT030 BKN070
      TEMPO 2601/2603 3SM -SHSN BKN025
     FM260300 27007KT P6SM SCT030 BKN060
     FM260700 19010KT P6SM FEW050 SCT100 BKN220
     FM261500 24012KT P6SM SCT080 BKN200
     FM261800 31012KT P6SM SCT080 BKN200=



000
FTUS45 KBOU 252320
TAFDEN
TAF
KDEN 252320Z 2600/2706 31011KT P6SM VCSH SCT015 BKN080
      TEMPO 2600/2602 3SM -SHSN BKN020
     FM260300 17007KT P6SM SCT050 BKN080
     FM260600 22010KT P6SM FEW050 SCT100 BKN200
     FM261800 31012KT P6SM SCT060 BKN180
     FM270300 27012KT P6SM SCT090 BKN200=



000
FTUS45 KBOU 252320
TAFAPA
TAF
KAPA 252320Z 2600/2624 30010KT P6SM VCSH SCT030 BKN070
      TEMPO 2601/2603 3SM -SHSN BKN025
     FM260300 27007KT P6SM SCT030 BKN060
     FM260700 19010KT P6SM FEW050 SCT100 BKN220
     FM261500 24012KT P6SM SCT080 BKN200
     FM261800 31012KT P6SM SCT080 BKN200=



000
FTUS45 KBOU 252320
TAFBJC
TAF
KBJC 252320Z 2600/2624 20008KT P6SM VCSH SCT035 BKN090
     FM260200 25007KT P6SM SCT050 BKN180
     FM261800 31012KT P6SM SCT090 BKN220=



000
FTUS45 KBOU 252254 AAF
TAFBJC
TAF AMD
KBJC 252254Z 2523/2618 25010KT P6SM VCSH SCT035 BKN050
      TEMPO 2523/2524 3SM -SHSN BKN020
     FM260200 32007KT P6SM SCT030 BKN050
     FM260400 25006KT P6SM SCT050 SCT100=



000
FTUS45 KBOU 252254 AAF
TAFBJC
TAF AMD
KBJC 252254Z 2523/2618 25010KT P6SM VCSH SCT035 BKN050
      TEMPO 2523/2524 3SM -SHSN BKN020
     FM260200 32007KT P6SM SCT030 BKN050
     FM260400 25006KT P6SM SCT050 SCT100=



000
FTUS45 KBOU 252253 AAG
TAFDEN
TAF AMD
KDEN 252253Z 2523/2624 31011KT P6SM VCSH SCT015 BKN040
      TEMPO 2523/2524 3SM -SN BR BKN015
     FM260100 12007KT P6SM SCT040 BKN080
     FM260300 17007KT P6SM SCT050 BKN080
     FM260600 20010KT P6SM FEW050 SCT100
     FM261800 35012KT P6SM SCT060 BKN090=



000
FTUS45 KBOU 252253 AAG
TAFDEN
TAF AMD
KDEN 252253Z 2523/2624 31011KT P6SM VCSH SCT015 BKN040
      TEMPO 2523/2524 3SM -SN BR BKN015
     FM260100 12007KT P6SM SCT040 BKN080
     FM260300 17007KT P6SM SCT050 BKN080
     FM260600 20010KT P6SM FEW050 SCT100
     FM261800 35012KT P6SM SCT060 BKN090=



000
FTUS45 KBOU 252102 AAF
TAFDEN
TAF AMD
KDEN 252102Z 2521/2624 03010KT P6SM VCSH SCT010 BKN050
      TEMPO 2521/2522 3SM -SHSN BKN008
     FM252200 07011KT P6SM VCSH SCT015 BKN040
      TEMPO 2522/2524 3SM -SN BR BKN015
     FM260100 12007KT P6SM SCT040 BKN080
     FM260300 17007KT P6SM SCT050 BKN080
     FM260600 20010KT P6SM FEW050 SCT100
     FM261800 35012KT P6SM SCT060 BKN090=



000
FTUS45 KBOU 252102 AAF
TAFDEN
TAF AMD
KDEN 252102Z 2521/2624 03010KT P6SM VCSH SCT010 BKN050
      TEMPO 2521/2522 3SM -SHSN BKN008
     FM252200 07011KT P6SM VCSH SCT015 BKN040
      TEMPO 2522/2524 3SM -SN BR BKN015
     FM260100 12007KT P6SM SCT040 BKN080
     FM260300 17007KT P6SM SCT050 BKN080
     FM260600 20010KT P6SM FEW050 SCT100
     FM261800 35012KT P6SM SCT060 BKN090=



000
FTUS45 KBOU 252053 AAE
TAFDEN
TAF AMD
KDEN 252053Z 2521/2624 01010KT P6SM VCSH SCT010 BKN050
      TEMPO 2521/2522 3SM -SHSN BKN008
     FM252200 07011KT P6SM VCSH SCT015 BKN040
      TEMPO 2522/2524 3SM -SN BR BKN015
     FM260100 12007KT P6SM SCT040 BKN080
     FM260300 17007KT P6SM SCT050 BKN080
     FM260600 20010KT P6SM FEW050 SCT100
     FM261800 35012KT P6SM SCT060 BKN090=



000
FTUS45 KBOU 252053 AAE
TAFBJC
TAF AMD
KBJC 252053Z 2521/2618 VRB06KT P6SM FEW010 BKN030 OVC070
      TEMPO 2521/2522 36008G15KT 4SM -SHSN BKN010
     FM252200 34012KT P6SM VCSH SCT035 BKN050
      TEMPO 2522/2524 3SM -SHSN BKN025
     FM260200 32007KT P6SM SCT030 BKN050
     FM260400 25006KT P6SM SCT050 SCT100=



000
FTUS45 KBOU 252053 AAC
TAFAPA
TAF AMD
KAPA 252053Z 2521/2618 35010KT P6SM VCSH SCT010 BKN050
      TEMPO 2521/2522 3SM -SHSN BKN010
     FM252200 05010KT P6SM VCSH SCT030 BKN070
      TEMPO 2522/2601 3SM -SHSN BKN025
     FM260200 17007KT P6SM SCT030 BKN060
     FM260600 21010KT P6SM FEW050 SCT100=



000
FTUS45 KBOU 252039 AAD
TAFBJC
TAF AMD
KBJC 252039Z 2521/2618 VRB06KT P6SM FEW010 BKN030 OVC070
      TEMPO 2521/2522 36008G15KT 4SM -SHSN BKN010
     FM252200 34012KT P6SM VCSH SCT035 BKN050
      TEMPO 2522/2601 3SM -SHSN BKN025
     FM260200 32007KT P6SM SCT030 BKN050
     FM260400 25006KT P6SM SCT050 SCT100=



000
FTUS45 KBOU 252039 AAD
TAFBJC
TAF AMD
KBJC 252039Z 2521/2618 VRB06KT P6SM FEW010 BKN030 OVC070
      TEMPO 2521/2522 36008G15KT 4SM -SHSN BKN010
     FM252200 34012KT P6SM VCSH SCT035 BKN050
      TEMPO 2522/2601 3SM -SHSN BKN025
     FM260200 32007KT P6SM SCT030 BKN050
     FM260400 25006KT P6SM SCT050 SCT100=



000
FTUS45 KBOU 252039 AAD
TAFBJC
TAF AMD
KBJC 252039Z 2521/2618 VRB06KT P6SM FEW010 BKN030 OVC070
      TEMPO 2521/2522 36008G15KT 4SM -SHSN BKN010
     FM252200 34012KT P6SM VCSH SCT035 BKN050
      TEMPO 2522/2601 3SM -SHSN BKN025
     FM260200 32007KT P6SM SCT030 BKN050
     FM260400 25006KT P6SM SCT050 SCT100=



000
FTUS45 KBOU 252039 AAD
TAFBJC
TAF AMD
KBJC 252039Z 2521/2618 VRB06KT P6SM FEW010 BKN030 OVC070
      TEMPO 2521/2522 36008G15KT 4SM -SHSN BKN010
     FM252200 34012KT P6SM VCSH SCT035 BKN050
      TEMPO 2522/2601 3SM -SHSN BKN025
     FM260200 32007KT P6SM SCT030 BKN050
     FM260400 25006KT P6SM SCT050 SCT100=



000
FTUS45 KBOU 252036 AAD
TAFDEN
TAF AMD
KDEN 252036Z 2521/2624 01010KT P6SM VCSH SCT010 BKN050
      TEMPO 2521/2522 3SM -SHSN BKN008
     FM252200 07011KT P6SM VCSH SCT015 BKN040
      TEMPO 2522/2601 2SM -SN BR BKN015
     FM260100 12007KT P6SM SCT040 BKN080
     FM260300 17007KT P6SM SCT050 BKN080
     FM260600 20010KT P6SM FEW050 SCT100
     FM261800 35012KT P6SM SCT060 BKN090=



000
FTUS45 KBOU 252036 AAD
TAFDEN
TAF AMD
KDEN 252036Z 2521/2624 01010KT P6SM VCSH SCT010 BKN050
      TEMPO 2521/2522 3SM -SHSN BKN008
     FM252200 07011KT P6SM VCSH SCT015 BKN040
      TEMPO 2522/2601 2SM -SN BR BKN015
     FM260100 12007KT P6SM SCT040 BKN080
     FM260300 17007KT P6SM SCT050 BKN080
     FM260600 20010KT P6SM FEW050 SCT100
     FM261800 35012KT P6SM SCT060 BKN090=



000
FTUS45 KBOU 252023 AAC
TAFBJC
TAF AMD
KBJC 252023Z 2520/2618 VRB06KT P6SM FEW010 BKN030 OVC070
      TEMPO 2520/2522 36008G15KT 3SM -SHSN BKN010
     FM252200 34012KT P6SM VCSH SCT035 BKN050
      TEMPO 2522/2601 2SM -SHSN BKN025
     FM260200 32007KT P6SM SCT030 BKN050
     FM260400 25006KT P6SM SCT050 SCT100=



000
FTUS45 KBOU 252023 AAC
TAFBJC
TAF AMD
KBJC 252023Z 2520/2618 VRB06KT P6SM FEW010 BKN030 OVC070
      TEMPO 2520/2522 36008G15KT 3SM -SHSN BKN010
     FM252200 34012KT P6SM VCSH SCT035 BKN050
      TEMPO 2522/2601 2SM -SHSN BKN025
     FM260200 32007KT P6SM SCT030 BKN050
     FM260400 25006KT P6SM SCT050 SCT100=



000
FTUS45 KBOU 251944 AAB
TAFAPA
TAF AMD
KAPA 251944Z 2520/2618 02012KT P6SM VCSH SCT005 OVC015
      TEMPO 2520/2522 2SM -SHSN BKN005 OVC010
     FM252200 05010KT P6SM VCSH SCT015 BKN030
      TEMPO 2522/2602 2SM -SN BKN015 OVC030
     FM260200 17007KT P6SM SCT030 BKN060
     FM260600 21010KT P6SM FEW050 SCT100=



000
FTUS45 KBOU 251944 AAB
TAFAPA
TAF AMD
KAPA 251944Z 2520/2618 02012KT P6SM VCSH SCT005 OVC015
      TEMPO 2520/2522 2SM -SHSN BKN005 OVC010
     FM252200 05010KT P6SM VCSH SCT015 BKN030
      TEMPO 2522/2602 2SM -SN BKN015 OVC030
     FM260200 17007KT P6SM SCT030 BKN060
     FM260600 21010KT P6SM FEW050 SCT100=



000
FTUS45 KBOU 251944 AAB
TAFAPA
TAF AMD
KAPA 251944Z 2520/2618 02012KT P6SM VCSH SCT005 OVC015
      TEMPO 2520/2522 2SM -SHSN BKN005 OVC010
     FM252200 05010KT P6SM VCSH SCT015 BKN030
      TEMPO 2522/2602 2SM -SN BKN015 OVC030
     FM260200 17007KT P6SM SCT030 BKN060
     FM260600 21010KT P6SM FEW050 SCT100=



000
FTUS45 KBOU 251944 AAB
TAFAPA
TAF AMD
KAPA 251944Z 2520/2618 02012KT P6SM VCSH SCT005 OVC015
      TEMPO 2520/2522 2SM -SHSN BKN005 OVC010
     FM252200 05010KT P6SM VCSH SCT015 BKN030
      TEMPO 2522/2602 2SM -SN BKN015 OVC030
     FM260200 17007KT P6SM SCT030 BKN060
     FM260600 21010KT P6SM FEW050 SCT100=



000
FTUS45 KBOU 251942 AAC
TAFDEN
TAF AMD
KDEN 251942Z 2520/2624 01010KT P6SM VCSH SCT004 BKN008 OVC020
      TEMPO 2520/2522 1SM -SHSN BKN004
     FM252200 07011KT P6SM VCSH SCT015 BKN040
      TEMPO 2522/2601 2SM -SN BR BKN015
     FM260100 12007KT P6SM SCT040 BKN080
     FM260300 17007KT P6SM SCT050 BKN080
     FM260600 20010KT P6SM FEW050 SCT100
     FM261800 35012KT P6SM SCT060 BKN090=



000
FTUS45 KBOU 251942 AAC
TAFDEN
TAF AMD
KDEN 251942Z 2520/2624 01010KT P6SM VCSH SCT004 BKN008 OVC020
      TEMPO 2520/2522 1SM -SHSN BKN004
     FM252200 07011KT P6SM VCSH SCT015 BKN040
      TEMPO 2522/2601 2SM -SN BR BKN015
     FM260100 12007KT P6SM SCT040 BKN080
     FM260300 17007KT P6SM SCT050 BKN080
     FM260600 20010KT P6SM FEW050 SCT100
     FM261800 35012KT P6SM SCT060 BKN090=



000
FTUS45 KBOU 251931 AAB
TAFBJC
TAF AMD
KBJC 251931Z 2520/2618 01008G15KT P6SM FEW005 BKN030 OVC070
      TEMPO 2520/2522 3SM -SHSN BKN010
     FM252200 34012KT P6SM VCSH SCT035 BKN050
      TEMPO 2522/2601 2SM -SHSN BKN025
     FM260200 32007KT P6SM SCT030 BKN050
     FM260400 25006KT P6SM SCT050 SCT100=



000
FTUS45 KBOU 251931 AAB
TAFBJC
TAF AMD
KBJC 251931Z 2520/2618 01008G15KT P6SM FEW005 BKN030 OVC070
      TEMPO 2520/2522 3SM -SHSN BKN010
     FM252200 34012KT P6SM VCSH SCT035 BKN050
      TEMPO 2522/2601 2SM -SHSN BKN025
     FM260200 32007KT P6SM SCT030 BKN050
     FM260400 25006KT P6SM SCT050 SCT100=



000
FTUS45 KBOU 251911 AAB
TAFDEN
TAF AMD
KDEN 251911Z 2519/2624 01012G18KT P6SM VCSH SCT004 BKN008 OVC020
      TEMPO 2519/2522 1SM -SHSN BKN004
     FM252200 07011KT P6SM VCSH SCT015 BKN040
      TEMPO 2522/2601 2SM -SN BR BKN015
     FM260100 12007KT P6SM SCT040 BKN080
     FM260300 17007KT P6SM SCT050 BKN080
     FM260600 20010KT P6SM FEW050 SCT100
     FM261800 35012KT P6SM SCT060 BKN090=



000
FTUS45 KBOU 251911 AAB
TAFDEN
TAF AMD
KDEN 251911Z 2519/2624 01012G18KT P6SM VCSH SCT004 BKN008 OVC020
      TEMPO 2519/2522 1SM -SHSN BKN004
     FM252200 07011KT P6SM VCSH SCT015 BKN040
      TEMPO 2522/2601 2SM -SN BR BKN015
     FM260100 12007KT P6SM SCT040 BKN080
     FM260300 17007KT P6SM SCT050 BKN080
     FM260600 20010KT P6SM FEW050 SCT100
     FM261800 35012KT P6SM SCT060 BKN090=



000
FTUS45 KBOU 251903 AAA
TAFBJC
TAF AMD
KBJC 251903Z 2519/2618 01008KT 5SM -SHSN FEW002 BKN010 OVC015
      TEMPO 2519/2522 1/2SM SN BKN005 OVC010
     FM252200 34012KT P6SM VCSH SCT035 BKN050
      TEMPO 2522/2601 2SM -SHSN BKN025
     FM260200 32007KT P6SM SCT030 BKN050
     FM260400 25006KT P6SM SCT050 SCT100=



000
FTUS45 KBOU 251903 AAA
TAFBJC
TAF AMD
KBJC 251903Z 2519/2618 01008KT 5SM -SHSN FEW002 BKN010 OVC015
      TEMPO 2519/2522 1/2SM SN BKN005 OVC010
     FM252200 34012KT P6SM VCSH SCT035 BKN050
      TEMPO 2522/2601 2SM -SHSN BKN025
     FM260200 32007KT P6SM SCT030 BKN050
     FM260400 25006KT P6SM SCT050 SCT100=



000
FTUS45 KBOU 251902 AAA
TAFAPA
TAF AMD
KAPA 251902Z 2519/2618 01014G22KT 3SM -SHSN SCT005 OVC015
      TEMPO 2519/2522 1/2SM SHSN BKN005 OVC010
     FM252200 05010KT P6SM VCSH SCT015 BKN030
      TEMPO 2522/2602 2SM -SN BKN015 OVC030
     FM260200 17007KT P6SM SCT030 BKN060
     FM260600 21010KT P6SM FEW050 SCT100=



000
FTUS45 KBOU 251902 AAA
TAFAPA
TAF AMD
KAPA 251902Z 2519/2618 01014G22KT 3SM -SHSN SCT005 OVC015
      TEMPO 2519/2522 1/2SM SHSN BKN005 OVC010
     FM252200 05010KT P6SM VCSH SCT015 BKN030
      TEMPO 2522/2602 2SM -SN BKN015 OVC030
     FM260200 17007KT P6SM SCT030 BKN060
     FM260600 21010KT P6SM FEW050 SCT100=



000
FTUS45 KBOU 251747 AAA
TAFDEN
TAF AMD
KDEN 251747Z 2518/2624 02018G26KT 2SM -SN BR OVC004
      TEMPO 2518/2519 1/2SM SN FZFG
     FM251900 02015G23KT P6SM VCSH SCT004 BKN008 OVC020
      TEMPO 2519/2522 1SM -SHSN BKN005
     FM252200 07011KT P6SM VCSH SCT015 BKN040
      TEMPO 2522/2601 2SM -SN BR BKN015
     FM260100 12007KT P6SM SCT040 BKN080
     FM260300 17007KT P6SM SCT050 BKN080
     FM260600 20010KT P6SM FEW050 SCT100
     FM261800 35012KT P6SM SCT060 BKN090=



000
FTUS45 KBOU 251747 AAA
TAFDEN
TAF AMD
KDEN 251747Z 2518/2624 02018G26KT 2SM -SN BR OVC004
      TEMPO 2518/2519 1/2SM SN FZFG
     FM251900 02015G23KT P6SM VCSH SCT004 BKN008 OVC020
      TEMPO 2519/2522 1SM -SHSN BKN005
     FM252200 07011KT P6SM VCSH SCT015 BKN040
      TEMPO 2522/2601 2SM -SN BR BKN015
     FM260100 12007KT P6SM SCT040 BKN080
     FM260300 17007KT P6SM SCT050 BKN080
     FM260600 20010KT P6SM FEW050 SCT100
     FM261800 35012KT P6SM SCT060 BKN090=



000
FTUS45 KBOU 251747 AAA
TAFDEN
TAF AMD
KDEN 251747Z 2518/2624 02018G26KT 2SM -SN BR OVC004
      TEMPO 2518/2519 1/2SM SN FZFG
     FM251900 02015G23KT P6SM VCSH SCT004 BKN008 OVC020
      TEMPO 2519/2522 1SM -SHSN BKN005
     FM252200 07011KT P6SM VCSH SCT015 BKN040
      TEMPO 2522/2601 2SM -SN BR BKN015
     FM260100 12007KT P6SM SCT040 BKN080
     FM260300 17007KT P6SM SCT050 BKN080
     FM260600 20010KT P6SM FEW050 SCT100
     FM261800 35012KT P6SM SCT060 BKN090=



000
FTUS45 KBOU 251727
TAFBJC
TAF
KBJC 251727Z 2518/2618 01008KT 5SM -SHSN FEW002 SCT010 OVC015
      TEMPO 2518/2522 1/2SM SN BKN002 OVC010
     FM252200 34012KT P6SM VCSH SCT035 BKN050
      TEMPO 2522/2601 2SM -SHSN BKN025
     FM260200 32007KT P6SM SCT030 BKN050
     FM260400 25006KT P6SM SCT050 SCT100=



000
FTUS45 KBOU 251727
TAFAPA
TAF
KAPA 251727Z 2518/2618 01014G22KT 3SM -SHSN SCT005 OVC015
      TEMPO 2518/2522 1/2SM SHSN SCT005 OVC010
     FM252200 05010KT P6SM VCSH SCT015 BKN030
      TEMPO 2522/2602 2SM -SN BKN015 OVC030
     FM260200 17007KT P6SM SCT030 BKN060
     FM260600 21010KT P6SM FEW050 SCT100=



000
FTUS45 KBOU 251727
TAFDEN
TAF
KDEN 251727Z 2518/2624 02015G24KT P6SM VCSH SCT004 BKN008 OVC020
      TEMPO 2518/2522 1SM -SHSN BKN005
     FM252200 07011KT P6SM VCSH SCT015 BKN040
      TEMPO 2522/2601 2SM -SN BR BKN015
     FM260100 12007KT P6SM SCT040 BKN080
     FM260300 17007KT P6SM SCT050 BKN080
     FM260600 20010KT P6SM FEW050 SCT100
     FM261800 35012KT P6SM SCT060 BKN090=



000
FTUS45 KBOU 251727
TAFBJC
TAF
KBJC 251727Z 2518/2618 01008KT 5SM -SHSN FEW002 SCT010 OVC015
      TEMPO 2518/2522 1/2SM SN BKN002 OVC010
     FM252200 34012KT P6SM VCSH SCT035 BKN050
      TEMPO 2522/2601 2SM -SHSN BKN025
     FM260200 32007KT P6SM SCT030 BKN050
     FM260400 25006KT P6SM SCT050 SCT100=



000
FTUS45 KBOU 251727
TAFAPA
TAF
KAPA 251727Z 2518/2618 01014G22KT 3SM -SHSN SCT005 OVC015
      TEMPO 2518/2522 1/2SM SHSN SCT005 OVC010
     FM252200 05010KT P6SM VCSH SCT015 BKN030
      TEMPO 2522/2602 2SM -SN BKN015 OVC030
     FM260200 17007KT P6SM SCT030 BKN060
     FM260600 21010KT P6SM FEW050 SCT100=



000
FTUS45 KBOU 251727
TAFDEN
TAF
KDEN 251727Z 2518/2624 02015G24KT P6SM VCSH SCT004 BKN008 OVC020
      TEMPO 2518/2522 1SM -SHSN BKN005
     FM252200 07011KT P6SM VCSH SCT015 BKN040
      TEMPO 2522/2601 2SM -SN BR BKN015
     FM260100 12007KT P6SM SCT040 BKN080
     FM260300 17007KT P6SM SCT050 BKN080
     FM260600 20010KT P6SM FEW050 SCT100
     FM261800 35012KT P6SM SCT060 BKN090=



000
FTUS45 KBOU 251642 AAE
TAFDEN
TAF AMD
KDEN 251642Z 2517/2618 36015KT P6SM -SN SCT004 OVC015
      TEMPO 2517/2518 5SM -SN BKN004
     FM251800 01014G22KT P6SM VCSH SCT020 BKN040
      TEMPO 2518/2521 1SM -SHRASN OVC020
     FM252300 05011KT P6SM VCSH SCT050 BKN080
     FM260100 09007KT P6SM SCT050 BKN080
     FM260300 14007KT P6SM SCT050 BKN080
     FM260600 20010KT P6SM FEW050 SCT100=



000
FTUS45 KBOU 251642 AAE
TAFDEN
TAF AMD
KDEN 251642Z 2517/2618 36015KT P6SM -SN SCT004 OVC015
      TEMPO 2517/2518 5SM -SN BKN004
     FM251800 01014G22KT P6SM VCSH SCT020 BKN040
      TEMPO 2518/2521 1SM -SHRASN OVC020
     FM252300 05011KT P6SM VCSH SCT050 BKN080
     FM260100 09007KT P6SM SCT050 BKN080
     FM260300 14007KT P6SM SCT050 BKN080
     FM260600 20010KT P6SM FEW050 SCT100=



000
FTUS45 KBOU 251556 AAE
TAFBJC
TAF AMD
KBJC 251556Z 2516/2612 01008KT 1SM -SN BKN002 OVC010
     FM251700 01012KT 5SM -SHSN BR SCT010 OVC020
      TEMPO 2518/2522 1/2SM SN BKN003 OVC010
     FM252200 34012KT P6SM VCSH SCT035 BKN050
      TEMPO 2522/2601 -SHRASN BKN035
     FM260200 32007KT P6SM SCT030 BKN050
     FM260400 25006KT P6SM SCT050 SCT100=



000
FTUS45 KBOU 251556 AAE
TAFBJC
TAF AMD
KBJC 251556Z 2516/2612 01008KT 1SM -SN BKN002 OVC010
     FM251700 01012KT 5SM -SHSN BR SCT010 OVC020
      TEMPO 2518/2522 1/2SM SN BKN003 OVC010
     FM252200 34012KT P6SM VCSH SCT035 BKN050
      TEMPO 2522/2601 -SHRASN BKN035
     FM260200 32007KT P6SM SCT030 BKN050
     FM260400 25006KT P6SM SCT050 SCT100=



000
FTUS45 KBOU 251459 AAD
TAFDEN
TAF AMD
KDEN 251459Z 2515/2618 02011KT 1SM -SN SCT005 OVC015
      TEMPO 2515/2517 1/4SM +SN OVC003
     FM251700 02014KT P6SM VCSH SCT015 BKN030
      TEMPO 2517/2519 1SM -SN OVC010
     FM251900 01012G22KT P6SM VCSH SCT030 BKN050
     FM252300 34011KT P6SM VCSH SCT050 BKN080
     FM260100 32007KT P6SM SCT050 BKN080
     FM260300 24007KT P6SM SCT050 BKN080
     FM260600 21010KT P6SM FEW050 SCT100=



000
FTUS45 KBOU 251459 AAD
TAFDEN
TAF AMD
KDEN 251459Z 2515/2618 02011KT 1SM -SN SCT005 OVC015
      TEMPO 2515/2517 1/4SM +SN OVC003
     FM251700 02014KT P6SM VCSH SCT015 BKN030
      TEMPO 2517/2519 1SM -SN OVC010
     FM251900 01012G22KT P6SM VCSH SCT030 BKN050
     FM252300 34011KT P6SM VCSH SCT050 BKN080
     FM260100 32007KT P6SM SCT050 BKN080
     FM260300 24007KT P6SM SCT050 BKN080
     FM260600 21010KT P6SM FEW050 SCT100=



000
FTUS45 KBOU 251459 AAD
TAFDEN
TAF AMD
KDEN 251459Z 2515/2618 02011KT 1SM -SN SCT005 OVC015
      TEMPO 2515/2517 1/4SM +SN OVC003
     FM251700 02014KT P6SM VCSH SCT015 BKN030
      TEMPO 2517/2519 1SM -SN OVC010
     FM251900 01012G22KT P6SM VCSH SCT030 BKN050
     FM252300 34011KT P6SM VCSH SCT050 BKN080
     FM260100 32007KT P6SM SCT050 BKN080
     FM260300 24007KT P6SM SCT050 BKN080
     FM260600 21010KT P6SM FEW050 SCT100=



000
FTUS45 KBOU 251459 AAD
TAFDEN
TAF AMD
KDEN 251459Z 2515/2618 02011KT 1SM -SN SCT005 OVC015
      TEMPO 2515/2517 1/4SM +SN OVC003
     FM251700 02014KT P6SM VCSH SCT015 BKN030
      TEMPO 2517/2519 1SM -SN OVC010
     FM251900 01012G22KT P6SM VCSH SCT030 BKN050
     FM252300 34011KT P6SM VCSH SCT050 BKN080
     FM260100 32007KT P6SM SCT050 BKN080
     FM260300 24007KT P6SM SCT050 BKN080
     FM260600 21010KT P6SM FEW050 SCT100=



000
FTUS45 KBOU 251447 AAC
TAFAPA
TAF AMD
KAPA 251447Z 2515/2612 09008KT 1SM -SN FEW003 BKN010 OVC020
      TEMPO 2515/2518 1/4SM +SN FG FEW002 BKN004 OVC010
     FM251800 01014G22KT P6SM VCSH SCT025 OVC040
      TEMPO 2518/2521 1SM -SHSN SCT005 OVC010
     FM252100 36014G22KT P6SM VCSH SCT015 BKN030
      TEMPO 2521/2524 2SM -SN BKN015 OVC030
     FM260000 34010KT P6SM VCSH SCT030 BKN050
     FM260300 24007KT P6SM SCT040 BKN080
     FM260600 21010KT P6SM FEW050 SCT100=



000
FTUS45 KBOU 251444 AAD
TAFBJC
TAF AMD
KBJC 251444Z 2515/2612 03008KT 1SM -SN FEW002 BKN005 OVC010
      TEMPO 2515/2517 1/4SM +SN BKN002 OVC005
     FM251700 01012KT 5SM -SHSN BR SCT010 OVC020
      TEMPO 2517/2521 1SM -SN BKN005 OVC010
     FM252100 34012KT P6SM VCSH SCT035 BKN050
      TEMPO 2521/2601 -SHRASN BKN035
     FM260200 32007KT P6SM SCT030 BKN050
     FM260400 25006KT P6SM SCT050 SCT100=



000
FTUS45 KBOU 251444 AAD
TAFBJC
TAF AMD
KBJC 251444Z 2515/2612 03008KT 1SM -SN FEW002 BKN005 OVC010
      TEMPO 2515/2517 1/4SM +SN BKN002 OVC005
     FM251700 01012KT 5SM -SHSN BR SCT010 OVC020
      TEMPO 2517/2521 1SM -SN BKN005 OVC010
     FM252100 34012KT P6SM VCSH SCT035 BKN050
      TEMPO 2521/2601 -SHRASN BKN035
     FM260200 32007KT P6SM SCT030 BKN050
     FM260400 25006KT P6SM SCT050 SCT100=



000
FTUS45 KBOU 251444 AAD
TAFBJC
TAF AMD
KBJC 251444Z 2515/2612 03008KT 1SM -SN FEW002 BKN005 OVC010
      TEMPO 2515/2517 1/4SM +SN BKN002 OVC005
     FM251700 01012KT 5SM -SHSN BR SCT010 OVC020
      TEMPO 2517/2521 1SM -SN BKN005 OVC010
     FM252100 34012KT P6SM VCSH SCT035 BKN050
      TEMPO 2521/2601 -SHRASN BKN035
     FM260200 32007KT P6SM SCT030 BKN050
     FM260400 25006KT P6SM SCT050 SCT100=



000
FTUS45 KBOU 251444 AAD
TAFBJC
TAF AMD
KBJC 251444Z 2515/2612 03008KT 1SM -SN FEW002 BKN005 OVC010
      TEMPO 2515/2517 1/4SM +SN BKN002 OVC005
     FM251700 01012KT 5SM -SHSN BR SCT010 OVC020
      TEMPO 2517/2521 1SM -SN BKN005 OVC010
     FM252100 34012KT P6SM VCSH SCT035 BKN050
      TEMPO 2521/2601 -SHRASN BKN035
     FM260200 32007KT P6SM SCT030 BKN050
     FM260400 25006KT P6SM SCT050 SCT100=



000
FTUS45 KBOU 251442 AAC
TAFDEN
TAF AMD
KDEN 251442Z 2515/2618 02011KT 2SM -SN SCT005 OVC015
      TEMPO 2515/2517 1/2SM SN OVC005
     FM251700 02014KT P6SM VCSH SCT015 BKN030
      TEMPO 2517/2519 1SM -SN OVC010
     FM251900 01012G22KT P6SM VCSH SCT030 BKN050
     FM252300 34011KT P6SM VCSH SCT050 BKN080
     FM260100 32007KT P6SM SCT050 BKN080
     FM260300 24007KT P6SM SCT050 BKN080
     FM260600 21010KT P6SM FEW050 SCT100=



000
FTUS45 KBOU 251327 AAC
TAFBJC
TAF AMD
KBJC 251327Z 2513/2612 03008KT P6SM VCSH SCT005 BKN025 BKN040
      TEMPO 2513/2516 1SM -SHRASN BKN005 BKN015
     FM251700 36012G20KT P6SM VCSH SCT020 BKN040
      TEMPO 2517/2521 4SM -SHRASN BKN020 OVC030
     FM252100 34012KT P6SM VCSH SCT035 BKN050
      TEMPO 2521/2601 -SHRASN BKN035
     FM260200 32007KT P6SM SCT030 BKN050
     FM260400 25006KT P6SM SCT050 SCT100=



000
FTUS45 KBOU 251327 AAC
TAFBJC
TAF AMD
KBJC 251327Z 2513/2612 03008KT P6SM VCSH SCT005 BKN025 BKN040
      TEMPO 2513/2516 1SM -SHRASN BKN005 BKN015
     FM251700 36012G20KT P6SM VCSH SCT020 BKN040
      TEMPO 2517/2521 4SM -SHRASN BKN020 OVC030
     FM252100 34012KT P6SM VCSH SCT035 BKN050
      TEMPO 2521/2601 -SHRASN BKN035
     FM260200 32007KT P6SM SCT030 BKN050
     FM260400 25006KT P6SM SCT050 SCT100=



000
FTUS45 KBOU 251312 AAB
TAFAPA
TAF AMD
KAPA 251312Z 2513/2612 09008KT P6SM VCSH SCT005 SCT010 OVC035
      TEMPO 2513/2516 3SM -SHRASN BKN005
     FM251600 01014G22KT P6SM VCSH SCT025 OVC040
      TEMPO 2516/2520 3SM -SHRASN SCT012 OVC025
     FM252000 36014G22KT P6SM VCSH SCT025 BKN040
      TEMPO 2520/2523 5SM -SHRASN BKN025 OVC040
     FM252300 34010KT P6SM VCSH SCT030 BKN050
     FM260300 24007KT P6SM SCT040 BKN080
     FM260600 21010KT P6SM FEW050 SCT100=



000
FTUS45 KBOU 251312 AAB
TAFAPA
TAF AMD
KAPA 251312Z 2513/2612 09008KT P6SM VCSH SCT005 SCT010 OVC035
      TEMPO 2513/2516 3SM -SHRASN BKN005
     FM251600 01014G22KT P6SM VCSH SCT025 OVC040
      TEMPO 2516/2520 3SM -SHRASN SCT012 OVC025
     FM252000 36014G22KT P6SM VCSH SCT025 BKN040
      TEMPO 2520/2523 5SM -SHRASN BKN025 OVC040
     FM252300 34010KT P6SM VCSH SCT030 BKN050
     FM260300 24007KT P6SM SCT040 BKN080
     FM260600 21010KT P6SM FEW050 SCT100=



000
FTUS45 KBOU 251312 AAB
TAFAPA
TAF AMD
KAPA 251312Z 2513/2612 09008KT P6SM VCSH SCT005 SCT010 OVC035
      TEMPO 2513/2516 3SM -SHRASN BKN005
     FM251600 01014G22KT P6SM VCSH SCT025 OVC040
      TEMPO 2516/2520 3SM -SHRASN SCT012 OVC025
     FM252000 36014G22KT P6SM VCSH SCT025 BKN040
      TEMPO 2520/2523 5SM -SHRASN BKN025 OVC040
     FM252300 34010KT P6SM VCSH SCT030 BKN050
     FM260300 24007KT P6SM SCT040 BKN080
     FM260600 21010KT P6SM FEW050 SCT100=



000
FTUS45 KBOU 251312 AAB
TAFAPA
TAF AMD
KAPA 251312Z 2513/2612 09008KT P6SM VCSH SCT005 SCT010 OVC035
      TEMPO 2513/2516 3SM -SHRASN BKN005
     FM251600 01014G22KT P6SM VCSH SCT025 OVC040
      TEMPO 2516/2520 3SM -SHRASN SCT012 OVC025
     FM252000 36014G22KT P6SM VCSH SCT025 BKN040
      TEMPO 2520/2523 5SM -SHRASN BKN025 OVC040
     FM252300 34010KT P6SM VCSH SCT030 BKN050
     FM260300 24007KT P6SM SCT040 BKN080
     FM260600 21010KT P6SM FEW050 SCT100=



000
FTUS45 KBOU 251311 AAB
TAFBJC
TAF AMD
KBJC 251311Z 2513/2612 03008KT P6SM VCSH SCT005 BKN025 BKN040
      TEMPO 2513/2516 5SM -SHRASN BKN010 BKN020
     FM251700 36012G20KT P6SM VCSH SCT020 BKN040
      TEMPO 2517/2521 4SM -SHRASN BKN020 OVC030
     FM252100 34012KT P6SM VCSH SCT035 BKN050
      TEMPO 2521/2601 -SHRASN BKN035
     FM260200 32007KT P6SM SCT030 BKN050
     FM260400 25006KT P6SM SCT050 SCT100=



000
FTUS45 KBOU 251311 AAB
TAFBJC
TAF AMD
KBJC 251311Z 2513/2612 03008KT P6SM VCSH SCT005 BKN025 BKN040
      TEMPO 2513/2516 5SM -SHRASN BKN010 BKN020
     FM251700 36012G20KT P6SM VCSH SCT020 BKN040
      TEMPO 2517/2521 4SM -SHRASN BKN020 OVC030
     FM252100 34012KT P6SM VCSH SCT035 BKN050
      TEMPO 2521/2601 -SHRASN BKN035
     FM260200 32007KT P6SM SCT030 BKN050
     FM260400 25006KT P6SM SCT050 SCT100=



000
FTUS45 KBOU 251311 AAB
TAFBJC
TAF AMD
KBJC 251311Z 2513/2612 03008KT P6SM VCSH SCT005 BKN025 BKN040
      TEMPO 2513/2516 5SM -SHRASN BKN010 BKN020
     FM251700 36012G20KT P6SM VCSH SCT020 BKN040
      TEMPO 2517/2521 4SM -SHRASN BKN020 OVC030
     FM252100 34012KT P6SM VCSH SCT035 BKN050
      TEMPO 2521/2601 -SHRASN BKN035
     FM260200 32007KT P6SM SCT030 BKN050
     FM260400 25006KT P6SM SCT050 SCT100=



000
FTUS45 KBOU 251311 AAB
TAFBJC
TAF AMD
KBJC 251311Z 2513/2612 03008KT P6SM VCSH SCT005 BKN025 BKN040
      TEMPO 2513/2516 5SM -SHRASN BKN010 BKN020
     FM251700 36012G20KT P6SM VCSH SCT020 BKN040
      TEMPO 2517/2521 4SM -SHRASN BKN020 OVC030
     FM252100 34012KT P6SM VCSH SCT035 BKN050
      TEMPO 2521/2601 -SHRASN BKN035
     FM260200 32007KT P6SM SCT030 BKN050
     FM260400 25006KT P6SM SCT050 SCT100=



000
FTUS45 KBOU 251243 CCA
TAFDEN
TAF COR
KDEN 251243Z 2512/2618 05011KT P6SM VCSH SCT005 BKN020
      TEMPO 2512/2515 6SM -SHRASN BKN005
     FM251500 01012KT P6SM VCSH SCT025 BKN050
      TEMPO 2515/2519 4SM -SHRASN BKN025
     FM251900 01012G22KT P6SM VCSH SCT030 BKN050
     FM252300 34011KT P6SM VCSH SCT050 BKN080
     FM260100 32007KT P6SM SCT050 BKN080
     FM260300 24007KT P6SM SCT050 BKN080
     FM260600 21010KT P6SM FEW050 SCT100=



000
FTUS45 KBOU 251243 CCA
TAFDEN
TAF COR
KDEN 251243Z 2512/2618 05011KT P6SM VCSH SCT005 BKN020
      TEMPO 2512/2515 6SM -SHRASN BKN005
     FM251500 01012KT P6SM VCSH SCT025 BKN050
      TEMPO 2515/2519 4SM -SHRASN BKN025
     FM251900 01012G22KT P6SM VCSH SCT030 BKN050
     FM252300 34011KT P6SM VCSH SCT050 BKN080
     FM260100 32007KT P6SM SCT050 BKN080
     FM260300 24007KT P6SM SCT050 BKN080
     FM260600 21010KT P6SM FEW050 SCT100=



000
FTUS45 KBOU 251243 CCA
TAFDEN
TAF COR
KDEN 251243Z 2512/2618 05011KT P6SM VCSH SCT005 BKN020
      TEMPO 2512/2515 6SM -SHRASN BKN005
     FM251500 01012KT P6SM VCSH SCT025 BKN050
      TEMPO 2515/2519 4SM -SHRASN BKN025
     FM251900 01012G22KT P6SM VCSH SCT030 BKN050
     FM252300 34011KT P6SM VCSH SCT050 BKN080
     FM260100 32007KT P6SM SCT050 BKN080
     FM260300 24007KT P6SM SCT050 BKN080
     FM260600 21010KT P6SM FEW050 SCT100=



000
FTUS45 KBOU 251243 CCA
TAFDEN
TAF COR
KDEN 251243Z 2512/2618 05011KT P6SM VCSH SCT005 BKN020
      TEMPO 2512/2515 6SM -SHRASN BKN005
     FM251500 01012KT P6SM VCSH SCT025 BKN050
      TEMPO 2515/2519 4SM -SHRASN BKN025
     FM251900 01012G22KT P6SM VCSH SCT030 BKN050
     FM252300 34011KT P6SM VCSH SCT050 BKN080
     FM260100 32007KT P6SM SCT050 BKN080
     FM260300 24007KT P6SM SCT050 BKN080
     FM260600 21010KT P6SM FEW050 SCT100=



000
FTUS45 KBOU 251239 AAA
TAFAPA
TAF AMD
KAPA 251239Z 2513/2612 09008KT P6SM VCSH SCT025 OVC035
      TEMPO 2513/2516 -SHRASN BKN025
     FM251600 01014G22KT P6SM VCSH SCT025 OVC040
      TEMPO 2516/2520 3SM -SHRASN SCT012 OVC025
     FM252000 36014G22KT P6SM VCSH SCT025 BKN040
      TEMPO 2520/2523 5SM -SHRASN BKN025 OVC040
     FM252300 34010KT P6SM VCSH SCT030 BKN050
     FM260300 24007KT P6SM SCT040 BKN080
     FM260600 21010KT P6SM FEW050 SCT100=



000
FTUS45 KBOU 251239 AAA
TAFAPA
TAF AMD
KAPA 251239Z 2513/2612 09008KT P6SM VCSH SCT025 OVC035
      TEMPO 2513/2516 -SHRASN BKN025
     FM251600 01014G22KT P6SM VCSH SCT025 OVC040
      TEMPO 2516/2520 3SM -SHRASN SCT012 OVC025
     FM252000 36014G22KT P6SM VCSH SCT025 BKN040
      TEMPO 2520/2523 5SM -SHRASN BKN025 OVC040
     FM252300 34010KT P6SM VCSH SCT030 BKN050
     FM260300 24007KT P6SM SCT040 BKN080
     FM260600 21010KT P6SM FEW050 SCT100=



000
FTUS45 KBOU 251239 AAA
TAFAPA
TAF AMD
KAPA 251239Z 2513/2612 09008KT P6SM VCSH SCT025 OVC035
      TEMPO 2513/2516 -SHRASN BKN025
     FM251600 01014G22KT P6SM VCSH SCT025 OVC040
      TEMPO 2516/2520 3SM -SHRASN SCT012 OVC025
     FM252000 36014G22KT P6SM VCSH SCT025 BKN040
      TEMPO 2520/2523 5SM -SHRASN BKN025 OVC040
     FM252300 34010KT P6SM VCSH SCT030 BKN050
     FM260300 24007KT P6SM SCT040 BKN080
     FM260600 21010KT P6SM FEW050 SCT100=



000
FTUS45 KBOU 251200 AAA
TAFBJC
TAF AMD
KBJC 251200Z 2512/2612 08013KT P6SM VCSH SCT035 BKN070
      TEMPO 2512/2515 -SHRASN BKN035
     FM251700 36012G20KT P6SM VCSH SCT020 BKN040
      TEMPO 2517/2521 4SM -SHRASN BKN020 OVC030
     FM252100 34012KT P6SM VCSH SCT035 BKN050
      TEMPO 2521/2601 -SHRASN BKN035
     FM260200 32007KT P6SM SCT030 BKN050
     FM260400 25006KT P6SM SCT050 SCT100=



000
FTUS45 KBOU 251200 AAA
TAFBJC
TAF AMD
KBJC 251200Z 2512/2612 08013KT P6SM VCSH SCT035 BKN070
      TEMPO 2512/2515 -SHRASN BKN035
     FM251700 36012G20KT P6SM VCSH SCT020 BKN040
      TEMPO 2517/2521 4SM -SHRASN BKN020 OVC030
     FM252100 34012KT P6SM VCSH SCT035 BKN050
      TEMPO 2521/2601 -SHRASN BKN035
     FM260200 32007KT P6SM SCT030 BKN050
     FM260400 25006KT P6SM SCT050 SCT100=



000
FTUS45 KBOU 251200 AAA
TAFBJC
TAF AMD
KBJC 251200Z 2512/2612 08013KT P6SM VCSH SCT035 BKN070
      TEMPO 2512/2515 -SHRASN BKN035
     FM251700 36012G20KT P6SM VCSH SCT020 BKN040
      TEMPO 2517/2521 4SM -SHRASN BKN020 OVC030
     FM252100 34012KT P6SM VCSH SCT035 BKN050
      TEMPO 2521/2601 -SHRASN BKN035
     FM260200 32007KT P6SM SCT030 BKN050
     FM260400 25006KT P6SM SCT050 SCT100=



000
FTUS45 KBOU 251200 AAA
TAFBJC
TAF AMD
KBJC 251200Z 2512/2612 08013KT P6SM VCSH SCT035 BKN070
      TEMPO 2512/2515 -SHRASN BKN035
     FM251700 36012G20KT P6SM VCSH SCT020 BKN040
      TEMPO 2517/2521 4SM -SHRASN BKN020 OVC030
     FM252100 34012KT P6SM VCSH SCT035 BKN050
      TEMPO 2521/2601 -SHRASN BKN035
     FM260200 32007KT P6SM SCT030 BKN050
     FM260400 25006KT P6SM SCT050 SCT100=



000
FTUS45 KBOU 251159 AAB
TAFDEN
TAF AMD
KDEN 251159Z 2512/2618 01012KT P6SM VCSH SCT007 BKN020
      TEMPO 2512/2515 5SM -SHRASN BKN007
     FM251500 01012KT P6SM VCSH SCT025 BKN050
      TEMPO 2515/2519 4SM -SHRASN BKN025
     FM251900 01012G22KT P6SM VCSH SCT030 BKN050
     FM252300 34011KT P6SM VCSH SCT050 BKN080
     FM260100 32007KT P6SM SCT050 BKN080
     FM260300 24007KT P6SM SCT050 BKN080
     FM260600 21010KT P6SM FEW050 SCT100=



000
FTUS45 KBOU 251159 AAB
TAFDEN
TAF AMD
KDEN 251159Z 2512/2618 01012KT P6SM VCSH SCT007 BKN020
      TEMPO 2512/2515 5SM -SHRASN BKN007
     FM251500 01012KT P6SM VCSH SCT025 BKN050
      TEMPO 2515/2519 4SM -SHRASN BKN025
     FM251900 01012G22KT P6SM VCSH SCT030 BKN050
     FM252300 34011KT P6SM VCSH SCT050 BKN080
     FM260100 32007KT P6SM SCT050 BKN080
     FM260300 24007KT P6SM SCT050 BKN080
     FM260600 21010KT P6SM FEW050 SCT100=



000
FTUS45 KBOU 251159 AAB
TAFDEN
TAF AMD
KDEN 251159Z 2512/2618 01012KT P6SM VCSH SCT007 BKN020
      TEMPO 2512/2515 5SM -SHRASN BKN007
     FM251500 01012KT P6SM VCSH SCT025 BKN050
      TEMPO 2515/2519 4SM -SHRASN BKN025
     FM251900 01012G22KT P6SM VCSH SCT030 BKN050
     FM252300 34011KT P6SM VCSH SCT050 BKN080
     FM260100 32007KT P6SM SCT050 BKN080
     FM260300 24007KT P6SM SCT050 BKN080
     FM260600 21010KT P6SM FEW050 SCT100=



000
FTUS45 KBOU 251159 AAB
TAFDEN
TAF AMD
KDEN 251159Z 2512/2618 01012KT P6SM VCSH SCT007 BKN020
      TEMPO 2512/2515 5SM -SHRASN BKN007
     FM251500 01012KT P6SM VCSH SCT025 BKN050
      TEMPO 2515/2519 4SM -SHRASN BKN025
     FM251900 01012G22KT P6SM VCSH SCT030 BKN050
     FM252300 34011KT P6SM VCSH SCT050 BKN080
     FM260100 32007KT P6SM SCT050 BKN080
     FM260300 24007KT P6SM SCT050 BKN080
     FM260600 21010KT P6SM FEW050 SCT100=



000
FTUS45 KBOU 251136 AAA
TAFDEN
TAF AMD
KDEN 251136Z 2512/2618 01014G23KT P6SM VCSH SCT020 OVC040
      TEMPO 2512/2515 4SM -SHRASN BKN020
     FM251500 02012KT P6SM VCSH SCT025 BKN050
      TEMPO 2515/2519 4SM -SHRASN BKN025
     FM251900 01012G22KT P6SM VCSH SCT030 BKN050
     FM252300 34011KT P6SM VCSH SCT050 BKN080
     FM260100 32007KT P6SM SCT050 BKN080
     FM260300 24007KT P6SM SCT050 BKN080
     FM260600 21010KT P6SM FEW050 SCT100=



000
FTUS45 KBOU 251136 AAA
TAFDEN
TAF AMD
KDEN 251136Z 2512/2618 01014G23KT P6SM VCSH SCT020 OVC040
      TEMPO 2512/2515 4SM -SHRASN BKN020
     FM251500 02012KT P6SM VCSH SCT025 BKN050
      TEMPO 2515/2519 4SM -SHRASN BKN025
     FM251900 01012G22KT P6SM VCSH SCT030 BKN050
     FM252300 34011KT P6SM VCSH SCT050 BKN080
     FM260100 32007KT P6SM SCT050 BKN080
     FM260300 24007KT P6SM SCT050 BKN080
     FM260600 21010KT P6SM FEW050 SCT100=



000
FTUS45 KBOU 251136 AAA
TAFDEN
TAF AMD
KDEN 251136Z 2512/2618 01014G23KT P6SM VCSH SCT020 OVC040
      TEMPO 2512/2515 4SM -SHRASN BKN020
     FM251500 02012KT P6SM VCSH SCT025 BKN050
      TEMPO 2515/2519 4SM -SHRASN BKN025
     FM251900 01012G22KT P6SM VCSH SCT030 BKN050
     FM252300 34011KT P6SM VCSH SCT050 BKN080
     FM260100 32007KT P6SM SCT050 BKN080
     FM260300 24007KT P6SM SCT050 BKN080
     FM260600 21010KT P6SM FEW050 SCT100=



000
FTUS45 KBOU 251136 AAA
TAFDEN
TAF AMD
KDEN 251136Z 2512/2618 01014G23KT P6SM VCSH SCT020 OVC040
      TEMPO 2512/2515 4SM -SHRASN BKN020
     FM251500 02012KT P6SM VCSH SCT025 BKN050
      TEMPO 2515/2519 4SM -SHRASN BKN025
     FM251900 01012G22KT P6SM VCSH SCT030 BKN050
     FM252300 34011KT P6SM VCSH SCT050 BKN080
     FM260100 32007KT P6SM SCT050 BKN080
     FM260300 24007KT P6SM SCT050 BKN080
     FM260600 21010KT P6SM FEW050 SCT100=



000
FTUS45 KBOU 251120
TAFDEN
TAF
KDEN 251120Z 2512/2618 01014G23KT P6SM VCSH SCT030 OVC050
      TEMPO 2512/2515 4SM -SHRASN BKN030
     FM251500 02012KT P6SM VCSH SCT025 BKN050
      TEMPO 2515/2519 4SM -SHRASN BKN025
     FM251900 01012G22KT P6SM VCSH SCT030 BKN050
     FM252300 34011KT P6SM VCSH SCT050 BKN080
     FM260100 32007KT P6SM SCT050 BKN080
     FM260300 24007KT P6SM SCT050 BKN080
     FM260600 21010KT P6SM FEW050 SCT100=



000
FTUS45 KBOU 251120
TAFDEN
TAF
KDEN 251120Z 2512/2618 01014G23KT P6SM VCSH SCT030 OVC050
      TEMPO 2512/2515 4SM -SHRASN BKN030
     FM251500 02012KT P6SM VCSH SCT025 BKN050
      TEMPO 2515/2519 4SM -SHRASN BKN025
     FM251900 01012G22KT P6SM VCSH SCT030 BKN050
     FM252300 34011KT P6SM VCSH SCT050 BKN080
     FM260100 32007KT P6SM SCT050 BKN080
     FM260300 24007KT P6SM SCT050 BKN080
     FM260600 21010KT P6SM FEW050 SCT100=



000
FTUS45 KBOU 251120
TAFAPA
TAF
KAPA 251120Z 2512/2612 15008KT P6SM BKN090 BKN150
     FM251230 03012KT P6SM VCSH SCT030 BKN080
      TEMPO 2513/2516 -SHRASN BKN030
     FM251600 01014G22KT P6SM VCSH SCT025 OVC040
      TEMPO 2516/2520 3SM -SHRASN SCT012 OVC025
     FM252000 36014G22KT P6SM VCSH SCT025 BKN040
      TEMPO 2520/2523 5SM -SHRASN BKN025 OVC040
     FM252300 34010KT P6SM VCSH SCT030 BKN050
     FM260300 24007KT P6SM SCT040 BKN080
     FM260600 21010KT P6SM FEW050 SCT100=



000
FTUS45 KBOU 251120
TAFAPA
TAF
KAPA 251120Z 2512/2612 15008KT P6SM BKN090 BKN150
     FM251230 03012KT P6SM VCSH SCT030 BKN080
      TEMPO 2513/2516 -SHRASN BKN030
     FM251600 01014G22KT P6SM VCSH SCT025 OVC040
      TEMPO 2516/2520 3SM -SHRASN SCT012 OVC025
     FM252000 36014G22KT P6SM VCSH SCT025 BKN040
      TEMPO 2520/2523 5SM -SHRASN BKN025 OVC040
     FM252300 34010KT P6SM VCSH SCT030 BKN050
     FM260300 24007KT P6SM SCT040 BKN080
     FM260600 21010KT P6SM FEW050 SCT100=



000
FTUS45 KBOU 251120
TAFBJC
TAF
KBJC 251120Z 2512/2612 31006KT P6SM VCSH SCT035 BKN070
     FM251230 04012KT P6SM VCSH SCT035 BKN070
      TEMPO 2513/2517 -SHRASN BKN035
     FM251700 36012G20KT P6SM VCSH SCT020 BKN040
      TEMPO 2517/2521 4SM -SHRASN BKN020 OVC030
     FM252100 34012KT P6SM VCSH SCT035 BKN050
      TEMPO 2521/2601 -SHRASN BKN035
     FM260200 32007KT P6SM SCT030 BKN050
     FM260400 25006KT P6SM SCT050 SCT100=



000
FTUS45 KBOU 251021 AAD
TAFDEN
TAF AMD
KDEN 251021Z 2510/2612 15006KT P6SM VCSH BKN090 BKN150
     FM251130 01015G25KT P6SM VCSH SCT030 OVC050
      TEMPO 2512/2515 -SHRASN BKN030
     FM251500 01012KT P6SM VCSH SCT025 BKN050
      TEMPO 2516/2519 4SM -SHRASN BKN025
     FM251900 01012G22KT P6SM VCSH SCT030 BKN050
     FM260000 36010KT P6SM SCT030 BKN050
     FM260300 23007KT P6SM SCT030 BKN050
     FM260600 21011KT P6SM FEW050=



000
FTUS45 KBOU 251021 AAD
TAFDEN
TAF AMD
KDEN 251021Z 2510/2612 15006KT P6SM VCSH BKN090 BKN150
     FM251130 01015G25KT P6SM VCSH SCT030 OVC050
      TEMPO 2512/2515 -SHRASN BKN030
     FM251500 01012KT P6SM VCSH SCT025 BKN050
      TEMPO 2516/2519 4SM -SHRASN BKN025
     FM251900 01012G22KT P6SM VCSH SCT030 BKN050
     FM260000 36010KT P6SM SCT030 BKN050
     FM260300 23007KT P6SM SCT030 BKN050
     FM260600 21011KT P6SM FEW050=



000
FTUS45 KBOU 250908 AAC
TAFBJC
TAF AMD
KBJC 250908Z 2509/2606 31006KT P6SM SCT090 BKN120
     FM251400 02012G20KT P6SM VCSH SCT025 OVC040
      TEMPO 2514/2518 3SM -SHRASN SCT012 OVC025
     FM251800 36012G20KT P6SM VCSH SCT020 BKN040
      TEMPO 2518/2520 5SM -SHRASN BKN020 OVC030
     FM260000 36010KT P6SM VCSH SCT030 BKN050
     FM260300 23007KT P6SM SCT030 BKN050=



000
FTUS45 KBOU 250908 AAC
TAFBJC
TAF AMD
KBJC 250908Z 2509/2606 31006KT P6SM SCT090 BKN120
     FM251400 02012G20KT P6SM VCSH SCT025 OVC040
      TEMPO 2514/2518 3SM -SHRASN SCT012 OVC025
     FM251800 36012G20KT P6SM VCSH SCT020 BKN040
      TEMPO 2518/2520 5SM -SHRASN BKN020 OVC030
     FM260000 36010KT P6SM VCSH SCT030 BKN050
     FM260300 23007KT P6SM SCT030 BKN050=



000
FTUS45 KBOU 250908 AAC
TAFBJC
TAF AMD
KBJC 250908Z 2509/2606 31006KT P6SM SCT090 BKN120
     FM251400 02012G20KT P6SM VCSH SCT025 OVC040
      TEMPO 2514/2518 3SM -SHRASN SCT012 OVC025
     FM251800 36012G20KT P6SM VCSH SCT020 BKN040
      TEMPO 2518/2520 5SM -SHRASN BKN020 OVC030
     FM260000 36010KT P6SM VCSH SCT030 BKN050
     FM260300 23007KT P6SM SCT030 BKN050=



000
FTUS45 KBOU 250908 AAC
TAFBJC
TAF AMD
KBJC 250908Z 2509/2606 31006KT P6SM SCT090 BKN120
     FM251400 02012G20KT P6SM VCSH SCT025 OVC040
      TEMPO 2514/2518 3SM -SHRASN SCT012 OVC025
     FM251800 36012G20KT P6SM VCSH SCT020 BKN040
      TEMPO 2518/2520 5SM -SHRASN BKN020 OVC030
     FM260000 36010KT P6SM VCSH SCT030 BKN050
     FM260300 23007KT P6SM SCT030 BKN050=



000
FTUS45 KBOU 250900 AAC
TAFDEN
TAF AMD
KDEN 250900Z 2509/2612 15006KT P6SM VCSH BKN090 BKN150
     FM251400 01015G25KT P6SM VCSH SCT025 OVC040
      TEMPO 2514/2518 4SM -SHRASN SCT012 OVC025
     FM251800 01012G22KT P6SM VCSH SCT030 BKN050
     FM260000 36010KT P6SM SCT030 BKN050
     FM260300 23007KT P6SM SCT030 BKN050
     FM260600 21011KT P6SM FEW050=



000
FTUS45 KBOU 250900 AAC
TAFDEN
TAF AMD
KDEN 250900Z 2509/2612 15006KT P6SM VCSH BKN090 BKN150
     FM251400 01015G25KT P6SM VCSH SCT025 OVC040
      TEMPO 2514/2518 4SM -SHRASN SCT012 OVC025
     FM251800 01012G22KT P6SM VCSH SCT030 BKN050
     FM260000 36010KT P6SM SCT030 BKN050
     FM260300 23007KT P6SM SCT030 BKN050
     FM260600 21011KT P6SM FEW050=



000
FTUS45 KBOU 250900 AAC
TAFDEN
TAF AMD
KDEN 250900Z 2509/2612 15006KT P6SM VCSH BKN090 BKN150
     FM251400 01015G25KT P6SM VCSH SCT025 OVC040
      TEMPO 2514/2518 4SM -SHRASN SCT012 OVC025
     FM251800 01012G22KT P6SM VCSH SCT030 BKN050
     FM260000 36010KT P6SM SCT030 BKN050
     FM260300 23007KT P6SM SCT030 BKN050
     FM260600 21011KT P6SM FEW050=



000
FTUS45 KBOU 250900 AAC
TAFDEN
TAF AMD
KDEN 250900Z 2509/2612 15006KT P6SM VCSH BKN090 BKN150
     FM251400 01015G25KT P6SM VCSH SCT025 OVC040
      TEMPO 2514/2518 4SM -SHRASN SCT012 OVC025
     FM251800 01012G22KT P6SM VCSH SCT030 BKN050
     FM260000 36010KT P6SM SCT030 BKN050
     FM260300 23007KT P6SM SCT030 BKN050
     FM260600 21011KT P6SM FEW050=



000
FTUS45 KBOU 250659 AAB
TAFBJC
TAF AMD
KBJC 250659Z 2507/2606 03012KT P6SM SCT090 BKN150
     FM251000 05012KT P6SM VCSH SCT035 BKN070
      TEMPO 2511/2514 -SHRASN BKN035
     FM251400 02012G20KT P6SM VCSH SCT025 OVC040
      TEMPO 2514/2518 3SM -SHRASN SCT012 OVC025
     FM251800 36012G20KT P6SM VCSH SCT020 BKN040
      TEMPO 2518/2520 5SM -SHRASN BKN020 OVC030
     FM260000 36010KT P6SM VCSH SCT030 BKN050
     FM260300 23007KT P6SM SCT030 BKN050=



000
FTUS45 KBOU 250659 AAB
TAFDEN
TAF AMD
KDEN 250659Z 2507/2612 09013KT P6SM BKN100 BKN150
     FM251000 03015KT P6SM VCSH SCT040 BKN070
      TEMPO 2511/2514 -SHRASN BKN040
     FM251400 01015G25KT P6SM VCSH SCT025 OVC040
      TEMPO 2514/2518 4SM -SHRASN SCT012 OVC025
     FM251800 01012G22KT P6SM VCSH SCT030 BKN050
     FM260000 36010KT P6SM SCT030 BKN050
     FM260300 23007KT P6SM SCT030 BKN050
     FM260600 21011KT P6SM FEW050=



000
FTUS45 KBOU 250659 AAB
TAFBJC
TAF AMD
KBJC 250659Z 2507/2606 03012KT P6SM SCT090 BKN150
     FM251000 05012KT P6SM VCSH SCT035 BKN070
      TEMPO 2511/2514 -SHRASN BKN035
     FM251400 02012G20KT P6SM VCSH SCT025 OVC040
      TEMPO 2514/2518 3SM -SHRASN SCT012 OVC025
     FM251800 36012G20KT P6SM VCSH SCT020 BKN040
      TEMPO 2518/2520 5SM -SHRASN BKN020 OVC030
     FM260000 36010KT P6SM VCSH SCT030 BKN050
     FM260300 23007KT P6SM SCT030 BKN050=



000
FTUS45 KBOU 250659 AAB
TAFDEN
TAF AMD
KDEN 250659Z 2507/2612 09013KT P6SM BKN100 BKN150
     FM251000 03015KT P6SM VCSH SCT040 BKN070
      TEMPO 2511/2514 -SHRASN BKN040
     FM251400 01015G25KT P6SM VCSH SCT025 OVC040
      TEMPO 2514/2518 4SM -SHRASN SCT012 OVC025
     FM251800 01012G22KT P6SM VCSH SCT030 BKN050
     FM260000 36010KT P6SM SCT030 BKN050
     FM260300 23007KT P6SM SCT030 BKN050
     FM260600 21011KT P6SM FEW050=



000
FTUS45 KBOU 250659 AAB
TAFDEN
TAF AMD
KDEN 250659Z 2507/2612 09013KT P6SM BKN100 BKN150
     FM251000 03015KT P6SM VCSH SCT040 BKN070
      TEMPO 2511/2514 -SHRASN BKN040
     FM251400 01015G25KT P6SM VCSH SCT025 OVC040
      TEMPO 2514/2518 4SM -SHRASN SCT012 OVC025
     FM251800 01012G22KT P6SM VCSH SCT030 BKN050
     FM260000 36010KT P6SM SCT030 BKN050
     FM260300 23007KT P6SM SCT030 BKN050
     FM260600 21011KT P6SM FEW050=



000
FTUS45 KBOU 250659 AAB
TAFDEN
TAF AMD
KDEN 250659Z 2507/2612 09013KT P6SM BKN100 BKN150
     FM251000 03015KT P6SM VCSH SCT040 BKN070
      TEMPO 2511/2514 -SHRASN BKN040
     FM251400 01015G25KT P6SM VCSH SCT025 OVC040
      TEMPO 2514/2518 4SM -SHRASN SCT012 OVC025
     FM251800 01012G22KT P6SM VCSH SCT030 BKN050
     FM260000 36010KT P6SM SCT030 BKN050
     FM260300 23007KT P6SM SCT030 BKN050
     FM260600 21011KT P6SM FEW050=



000
FTUS45 KBOU 250659 AAB
TAFBJC
TAF AMD
KBJC 250659Z 2507/2606 03012KT P6SM SCT090 BKN150
     FM251000 05012KT P6SM VCSH SCT035 BKN070
      TEMPO 2511/2514 -SHRASN BKN035
     FM251400 02012G20KT P6SM VCSH SCT025 OVC040
      TEMPO 2514/2518 3SM -SHRASN SCT012 OVC025
     FM251800 36012G20KT P6SM VCSH SCT020 BKN040
      TEMPO 2518/2520 5SM -SHRASN BKN020 OVC030
     FM260000 36010KT P6SM VCSH SCT030 BKN050
     FM260300 23007KT P6SM SCT030 BKN050=



000
FTUS45 KBOU 250659 AAB
TAFBJC
TAF AMD
KBJC 250659Z 2507/2606 03012KT P6SM SCT090 BKN150
     FM251000 05012KT P6SM VCSH SCT035 BKN070
      TEMPO 2511/2514 -SHRASN BKN035
     FM251400 02012G20KT P6SM VCSH SCT025 OVC040
      TEMPO 2514/2518 3SM -SHRASN SCT012 OVC025
     FM251800 36012G20KT P6SM VCSH SCT020 BKN040
      TEMPO 2518/2520 5SM -SHRASN BKN020 OVC030
     FM260000 36010KT P6SM VCSH SCT030 BKN050
     FM260300 23007KT P6SM SCT030 BKN050=



000
FTUS45 KBOU 250608 AAA
TAFDEN
TAF AMD
KDEN 250608Z 2506/2612 05015KT P6SM SCT100 BKN150
     FM251000 03015KT P6SM VCSH SCT040 BKN070
      TEMPO 2511/2514 -SHRASN BKN040
     FM251400 01015G25KT P6SM VCSH SCT025 OVC040
      TEMPO 2514/2518 4SM -SHRASN SCT012 OVC025
     FM251800 01012G22KT P6SM VCSH SCT030 BKN050
     FM260000 36010KT P6SM SCT030 BKN050
     FM260300 23007KT P6SM SCT030 BKN050
     FM260600 21011KT P6SM FEW050=



000
FTUS45 KBOU 250608 AAA
TAFDEN
TAF AMD
KDEN 250608Z 2506/2612 05015KT P6SM SCT100 BKN150
     FM251000 03015KT P6SM VCSH SCT040 BKN070
      TEMPO 2511/2514 -SHRASN BKN040
     FM251400 01015G25KT P6SM VCSH SCT025 OVC040
      TEMPO 2514/2518 4SM -SHRASN SCT012 OVC025
     FM251800 01012G22KT P6SM VCSH SCT030 BKN050
     FM260000 36010KT P6SM SCT030 BKN050
     FM260300 23007KT P6SM SCT030 BKN050
     FM260600 21011KT P6SM FEW050=



000
FTUS45 KBOU 250608 AAA
TAFDEN
TAF AMD
KDEN 250608Z 2506/2612 05015KT P6SM SCT100 BKN150
     FM251000 03015KT P6SM VCSH SCT040 BKN070
      TEMPO 2511/2514 -SHRASN BKN040
     FM251400 01015G25KT P6SM VCSH SCT025 OVC040
      TEMPO 2514/2518 4SM -SHRASN SCT012 OVC025
     FM251800 01012G22KT P6SM VCSH SCT030 BKN050
     FM260000 36010KT P6SM SCT030 BKN050
     FM260300 23007KT P6SM SCT030 BKN050
     FM260600 21011KT P6SM FEW050=



000
FTUS45 KBOU 250608 AAA
TAFDEN
TAF AMD
KDEN 250608Z 2506/2612 05015KT P6SM SCT100 BKN150
     FM251000 03015KT P6SM VCSH SCT040 BKN070
      TEMPO 2511/2514 -SHRASN BKN040
     FM251400 01015G25KT P6SM VCSH SCT025 OVC040
      TEMPO 2514/2518 4SM -SHRASN SCT012 OVC025
     FM251800 01012G22KT P6SM VCSH SCT030 BKN050
     FM260000 36010KT P6SM SCT030 BKN050
     FM260300 23007KT P6SM SCT030 BKN050
     FM260600 21011KT P6SM FEW050=



000
FTUS45 KBOU 250607 AAA
TAFBJC
TAF AMD
KBJC 250607Z 2506/2606 10013KT P6SM SCT090 BKN150
     FM251000 05012KT P6SM VCSH SCT035 BKN070
      TEMPO 2511/2514 -SHRASN BKN035
     FM251400 02012G20KT P6SM VCSH SCT025 OVC040
      TEMPO 2514/2518 3SM -SHRASN SCT012 OVC025
     FM251800 36012G20KT P6SM VCSH SCT020 BKN040
      TEMPO 2518/2520 5SM -SHRASN BKN020 OVC030
     FM260000 36010KT P6SM VCSH SCT030 BKN050
     FM260300 23007KT P6SM SCT030 BKN050=



000
FTUS45 KBOU 250607 AAA
TAFBJC
TAF AMD
KBJC 250607Z 2506/2606 10013KT P6SM SCT090 BKN150
     FM251000 05012KT P6SM VCSH SCT035 BKN070
      TEMPO 2511/2514 -SHRASN BKN035
     FM251400 02012G20KT P6SM VCSH SCT025 OVC040
      TEMPO 2514/2518 3SM -SHRASN SCT012 OVC025
     FM251800 36012G20KT P6SM VCSH SCT020 BKN040
      TEMPO 2518/2520 5SM -SHRASN BKN020 OVC030
     FM260000 36010KT P6SM VCSH SCT030 BKN050
     FM260300 23007KT P6SM SCT030 BKN050=



000
FTUS45 KBOU 250607 AAA
TAFBJC
TAF AMD
KBJC 250607Z 2506/2606 10013KT P6SM SCT090 BKN150
     FM251000 05012KT P6SM VCSH SCT035 BKN070
      TEMPO 2511/2514 -SHRASN BKN035
     FM251400 02012G20KT P6SM VCSH SCT025 OVC040
      TEMPO 2514/2518 3SM -SHRASN SCT012 OVC025
     FM251800 36012G20KT P6SM VCSH SCT020 BKN040
      TEMPO 2518/2520 5SM -SHRASN BKN020 OVC030
     FM260000 36010KT P6SM VCSH SCT030 BKN050
     FM260300 23007KT P6SM SCT030 BKN050=



000
FTUS45 KBOU 250607 AAA
TAFBJC
TAF AMD
KBJC 250607Z 2506/2606 10013KT P6SM SCT090 BKN150
     FM251000 05012KT P6SM VCSH SCT035 BKN070
      TEMPO 2511/2514 -SHRASN BKN035
     FM251400 02012G20KT P6SM VCSH SCT025 OVC040
      TEMPO 2514/2518 3SM -SHRASN SCT012 OVC025
     FM251800 36012G20KT P6SM VCSH SCT020 BKN040
      TEMPO 2518/2520 5SM -SHRASN BKN020 OVC030
     FM260000 36010KT P6SM VCSH SCT030 BKN050
     FM260300 23007KT P6SM SCT030 BKN050=



000
FTUS45 KBOU 250522
TAFBJC
TAF
KBJC 250522Z 2506/2606 26007KT P6SM SCT100 BKN180
     FM251000 05012KT P6SM VCSH SCT035 BKN070
      TEMPO 2511/2514 -SHRASN BKN035
     FM251400 02012G20KT P6SM VCSH SCT025 OVC040
      TEMPO 2514/2518 3SM -SHRASN SCT012 OVC025
     FM251800 36012G20KT P6SM VCSH SCT020 BKN040
      TEMPO 2518/2520 5SM -SHRASN BKN020 OVC030
     FM260000 36010KT P6SM VCSH SCT030 BKN050
     FM260300 23007KT P6SM SCT030 BKN050=



000
FTUS45 KBOU 250522
TAFAPA
TAF
KAPA 250522Z 2506/2606 07008KT P6SM SCT100 BKN150
     FM251100 36010KT P6SM VCSH SCT040 BKN070
      TEMPO 2511/2514 -SHRASN BKN040
     FM251500 01014G24KT P6SM VCSH SCT025 OVC040
      TEMPO 2515/2519 2SM -SHRASN SCT012 OVC025
     FM251900 36014G22KT P6SM VCSH SCT020 BKN040
      TEMPO 2519/2522 3SM -SHRASN BKN020 OVC030
     FM260000 36010KT P6SM VCSH SCT030 BKN050
     FM260300 23007KT P6SM SCT030 BKN050=



000
FTUS45 KBOU 250522
TAFAPA
TAF
KAPA 250522Z 2506/2606 07008KT P6SM SCT100 BKN150
     FM251100 36010KT P6SM VCSH SCT040 BKN070
      TEMPO 2511/2514 -SHRASN BKN040
     FM251500 01014G24KT P6SM VCSH SCT025 OVC040
      TEMPO 2515/2519 2SM -SHRASN SCT012 OVC025
     FM251900 36014G22KT P6SM VCSH SCT020 BKN040
      TEMPO 2519/2522 3SM -SHRASN BKN020 OVC030
     FM260000 36010KT P6SM VCSH SCT030 BKN050
     FM260300 23007KT P6SM SCT030 BKN050=



000
FTUS45 KBOU 250522
TAFDEN
TAF
KDEN 250522Z 2506/2612 09015KT P6SM SCT100 BKN150
     FM251000 03015KT P6SM VCSH SCT040 BKN070
      TEMPO 2511/2514 -SHRASN BKN040
     FM251400 01015G25KT P6SM VCSH SCT025 OVC040
      TEMPO 2514/2518 4SM -SHRASN SCT012 OVC025
     FM251800 01012G22KT P6SM VCSH SCT030 BKN050
     FM260000 36010KT P6SM SCT030 BKN050
     FM260300 23007KT P6SM SCT030 BKN050
     FM260600 21011KT P6SM FEW050=



000
FTUS45 KBOU 250522
TAFBJC
TAF
KBJC 250522Z 2506/2606 26007KT P6SM SCT100 BKN180
     FM251000 05012KT P6SM VCSH SCT035 BKN070
      TEMPO 2511/2514 -SHRASN BKN035
     FM251400 02012G20KT P6SM VCSH SCT025 OVC040
      TEMPO 2514/2518 3SM -SHRASN SCT012 OVC025
     FM251800 36012G20KT P6SM VCSH SCT020 BKN040
      TEMPO 2518/2520 5SM -SHRASN BKN020 OVC030
     FM260000 36010KT P6SM VCSH SCT030 BKN050
     FM260300 23007KT P6SM SCT030 BKN050=



000
FTUS45 KBOU 250522
TAFAPA
TAF
KAPA 250522Z 2506/2606 07008KT P6SM SCT100 BKN150
     FM251100 36010KT P6SM VCSH SCT040 BKN070
      TEMPO 2511/2514 -SHRASN BKN040
     FM251500 01014G24KT P6SM VCSH SCT025 OVC040
      TEMPO 2515/2519 2SM -SHRASN SCT012 OVC025
     FM251900 36014G22KT P6SM VCSH SCT020 BKN040
      TEMPO 2519/2522 3SM -SHRASN BKN020 OVC030
     FM260000 36010KT P6SM VCSH SCT030 BKN050
     FM260300 23007KT P6SM SCT030 BKN050=



000
FTUS45 KBOU 250522
TAFBJC
TAF
KBJC 250522Z 2506/2606 26007KT P6SM SCT100 BKN180
     FM251000 05012KT P6SM VCSH SCT035 BKN070
      TEMPO 2511/2514 -SHRASN BKN035
     FM251400 02012G20KT P6SM VCSH SCT025 OVC040
      TEMPO 2514/2518 3SM -SHRASN SCT012 OVC025
     FM251800 36012G20KT P6SM VCSH SCT020 BKN040
      TEMPO 2518/2520 5SM -SHRASN BKN020 OVC030
     FM260000 36010KT P6SM VCSH SCT030 BKN050
     FM260300 23007KT P6SM SCT030 BKN050=



000
FTUS45 KBOU 250522
TAFDEN
TAF
KDEN 250522Z 2506/2612 09015KT P6SM SCT100 BKN150
     FM251000 03015KT P6SM VCSH SCT040 BKN070
      TEMPO 2511/2514 -SHRASN BKN040
     FM251400 01015G25KT P6SM VCSH SCT025 OVC040
      TEMPO 2514/2518 4SM -SHRASN SCT012 OVC025
     FM251800 01012G22KT P6SM VCSH SCT030 BKN050
     FM260000 36010KT P6SM SCT030 BKN050
     FM260300 23007KT P6SM SCT030 BKN050
     FM260600 21011KT P6SM FEW050=



000
FTUS45 KBOU 250522
TAFBJC
TAF
KBJC 250522Z 2506/2606 26007KT P6SM SCT100 BKN180
     FM251000 05012KT P6SM VCSH SCT035 BKN070
      TEMPO 2511/2514 -SHRASN BKN035
     FM251400 02012G20KT P6SM VCSH SCT025 OVC040
      TEMPO 2514/2518 3SM -SHRASN SCT012 OVC025
     FM251800 36012G20KT P6SM VCSH SCT020 BKN040
      TEMPO 2518/2520 5SM -SHRASN BKN020 OVC030
     FM260000 36010KT P6SM VCSH SCT030 BKN050
     FM260300 23007KT P6SM SCT030 BKN050=



000
FTUS45 KBOU 250522
TAFAPA
TAF
KAPA 250522Z 2506/2606 07008KT P6SM SCT100 BKN150
     FM251100 36010KT P6SM VCSH SCT040 BKN070
      TEMPO 2511/2514 -SHRASN BKN040
     FM251500 01014G24KT P6SM VCSH SCT025 OVC040
      TEMPO 2515/2519 2SM -SHRASN SCT012 OVC025
     FM251900 36014G22KT P6SM VCSH SCT020 BKN040
      TEMPO 2519/2522 3SM -SHRASN BKN020 OVC030
     FM260000 36010KT P6SM VCSH SCT030 BKN050
     FM260300 23007KT P6SM SCT030 BKN050=



000
FTUS45 KBOU 250522
TAFDEN
TAF
KDEN 250522Z 2506/2612 09015KT P6SM SCT100 BKN150
     FM251000 03015KT P6SM VCSH SCT040 BKN070
      TEMPO 2511/2514 -SHRASN BKN040
     FM251400 01015G25KT P6SM VCSH SCT025 OVC040
      TEMPO 2514/2518 4SM -SHRASN SCT012 OVC025
     FM251800 01012G22KT P6SM VCSH SCT030 BKN050
     FM260000 36010KT P6SM SCT030 BKN050
     FM260300 23007KT P6SM SCT030 BKN050
     FM260600 21011KT P6SM FEW050=



000
FTUS45 KBOU 250522
TAFDEN
TAF
KDEN 250522Z 2506/2612 09015KT P6SM SCT100 BKN150
     FM251000 03015KT P6SM VCSH SCT040 BKN070
      TEMPO 2511/2514 -SHRASN BKN040
     FM251400 01015G25KT P6SM VCSH SCT025 OVC040
      TEMPO 2514/2518 4SM -SHRASN SCT012 OVC025
     FM251800 01012G22KT P6SM VCSH SCT030 BKN050
     FM260000 36010KT P6SM SCT030 BKN050
     FM260300 23007KT P6SM SCT030 BKN050
     FM260600 21011KT P6SM FEW050=



000
FTUS45 KBOU 250426 AAE
TAFDEN
TAF AMD
KDEN 250426Z 2504/2606 08008KT P6SM FEW100 BKN200
     FM250600 20010KT P6SM FEW070 SCT120 BKN200
     FM251100 01012KT P6SM VCSH SCT050 BKN070
     FM251500 01018G27KT P6SM SCT025 OVC040 PROB30 2515/2521 4SM
      -SHRASN
     FM252100 35015G25KT P6SM VCSH SCT030 BKN050
     FM260200 26010KT P6SM SCT030 BKN050=



000
FTUS45 KBOU 250426 AAE
TAFDEN
TAF AMD
KDEN 250426Z 2504/2606 08008KT P6SM FEW100 BKN200
     FM250600 20010KT P6SM FEW070 SCT120 BKN200
     FM251100 01012KT P6SM VCSH SCT050 BKN070
     FM251500 01018G27KT P6SM SCT025 OVC040 PROB30 2515/2521 4SM
      -SHRASN
     FM252100 35015G25KT P6SM VCSH SCT030 BKN050
     FM260200 26010KT P6SM SCT030 BKN050=



000
FTUS45 KBOU 250346 AAD
TAFDEN
TAF AMD
KDEN 250346Z 2504/2606 15008KT P6SM FEW100 BKN200
     FM250600 20010KT P6SM FEW070 SCT120 BKN200
     FM251100 01012KT P6SM VCSH SCT050 BKN070
     FM251500 01018G27KT P6SM SCT025 OVC040 PROB30 2515/2521 4SM
      -SHRASN
     FM252100 35015G25KT P6SM VCSH SCT030 BKN050
     FM260200 26010KT P6SM SCT030 BKN050=



000
FTUS45 KBOU 250346 AAD
TAFDEN
TAF AMD
KDEN 250346Z 2504/2606 15008KT P6SM FEW100 BKN200
     FM250600 20010KT P6SM FEW070 SCT120 BKN200
     FM251100 01012KT P6SM VCSH SCT050 BKN070
     FM251500 01018G27KT P6SM SCT025 OVC040 PROB30 2515/2521 4SM
      -SHRASN
     FM252100 35015G25KT P6SM VCSH SCT030 BKN050
     FM260200 26010KT P6SM SCT030 BKN050=



000
FTUS45 KBOU 250346 AAD
TAFDEN
TAF AMD
KDEN 250346Z 2504/2606 15008KT P6SM FEW100 BKN200
     FM250600 20010KT P6SM FEW070 SCT120 BKN200
     FM251100 01012KT P6SM VCSH SCT050 BKN070
     FM251500 01018G27KT P6SM SCT025 OVC040 PROB30 2515/2521 4SM
      -SHRASN
     FM252100 35015G25KT P6SM VCSH SCT030 BKN050
     FM260200 26010KT P6SM SCT030 BKN050=



000
FTUS45 KBOU 250245 AAC
TAFDEN
TAF AMD
KDEN 250245Z 2503/2606 19009KT P6SM FEW100 BKN200
     FM250500 24010KT P6SM FEW070 SCT120 BKN200
     FM251000 01012KT P6SM VCSH SCT050 BKN070
     FM251500 01018G27KT P6SM SCT025 OVC040 PROB30 2515/2521 4SM
      -SHRASN
     FM252100 35015G25KT P6SM VCSH SCT030 BKN050
     FM260200 26010KT P6SM SCT030 BKN050=



000
FTUS45 KBOU 250245 AAA
TAFBJC
TAF AMD
KBJC 250245Z 2503/2524 24012KT P6SM SCT080 BKN200
     FM251100 33012KT P6SM VCSH SCT050 BKN070
     FM251500 35018G27KT P6SM SCT030 OVC070
      TEMPO 2515/2518 4SM -SHRASN BKN030
     FM251800 01012G22KT P6SM SCT030 BKN050=



000
FTUS45 KBOU 250245 AAA
TAFAPA
TAF AMD
KAPA 250245Z 2503/2524 22008KT P6SM SCT060 BKN200
     FM250900 24010KT P6SM SCT030 BKN060
     FM251100 01014KT P6SM VCSH SCT050 BKN070
     FM251500 01018G27KT P6SM SCT020 OVC050
      TEMPO 2515/2518 3SM -SHRASN SCT015 OVC030
     FM252100 01014G22KT P6SM SCT030 BKN070=



000
FTUS45 KBOU 250245 AAA
TAFAPA
TAF AMD
KAPA 250245Z 2503/2524 22008KT P6SM SCT060 BKN200
     FM250900 24010KT P6SM SCT030 BKN060
     FM251100 01014KT P6SM VCSH SCT050 BKN070
     FM251500 01018G27KT P6SM SCT020 OVC050
      TEMPO 2515/2518 3SM -SHRASN SCT015 OVC030
     FM252100 01014G22KT P6SM SCT030 BKN070=



000
FTUS45 KBOU 250245 AAC
TAFDEN
TAF AMD
KDEN 250245Z 2503/2606 19009KT P6SM FEW100 BKN200
     FM250500 24010KT P6SM FEW070 SCT120 BKN200
     FM251000 01012KT P6SM VCSH SCT050 BKN070
     FM251500 01018G27KT P6SM SCT025 OVC040 PROB30 2515/2521 4SM
      -SHRASN
     FM252100 35015G25KT P6SM VCSH SCT030 BKN050
     FM260200 26010KT P6SM SCT030 BKN050=



000
FTUS45 KBOU 250245 AAC
TAFDEN
TAF AMD
KDEN 250245Z 2503/2606 19009KT P6SM FEW100 BKN200
     FM250500 24010KT P6SM FEW070 SCT120 BKN200
     FM251000 01012KT P6SM VCSH SCT050 BKN070
     FM251500 01018G27KT P6SM SCT025 OVC040 PROB30 2515/2521 4SM
      -SHRASN
     FM252100 35015G25KT P6SM VCSH SCT030 BKN050
     FM260200 26010KT P6SM SCT030 BKN050=



000
FTUS45 KBOU 250245 AAA
TAFAPA
TAF AMD
KAPA 250245Z 2503/2524 22008KT P6SM SCT060 BKN200
     FM250900 24010KT P6SM SCT030 BKN060
     FM251100 01014KT P6SM VCSH SCT050 BKN070
     FM251500 01018G27KT P6SM SCT020 OVC050
      TEMPO 2515/2518 3SM -SHRASN SCT015 OVC030
     FM252100 01014G22KT P6SM SCT030 BKN070=



000
FTUS45 KBOU 250245 AAA
TAFBJC
TAF AMD
KBJC 250245Z 2503/2524 24012KT P6SM SCT080 BKN200
     FM251100 33012KT P6SM VCSH SCT050 BKN070
     FM251500 35018G27KT P6SM SCT030 OVC070
      TEMPO 2515/2518 4SM -SHRASN BKN030
     FM251800 01012G22KT P6SM SCT030 BKN050=



000
FTUS45 KBOU 250245 AAA
TAFBJC
TAF AMD
KBJC 250245Z 2503/2524 24012KT P6SM SCT080 BKN200
     FM251100 33012KT P6SM VCSH SCT050 BKN070
     FM251500 35018G27KT P6SM SCT030 OVC070
      TEMPO 2515/2518 4SM -SHRASN BKN030
     FM251800 01012G22KT P6SM SCT030 BKN050=



000
FTUS45 KBOU 250143 AAB
TAFDEN
TAF AMD
KDEN 250143Z 2502/2606 14007KT P6SM FEW100 SCT150 BKN200
     FM250300 19009KT P6SM BKN100 OVC200
     FM250500 24010KT P6SM BKN100 OVC200
     FM251000 01012KT P6SM VCSH SCT050 BKN070
     FM251500 01018G27KT P6SM SCT025 OVC040 PROB30 2515/2521 4SM
      -SHRASN
     FM252100 35015G25KT P6SM VCSH SCT030 BKN050
     FM260200 26010KT P6SM SCT030 BKN050=



000
FTUS45 KBOU 250143 AAB
TAFDEN
TAF AMD
KDEN 250143Z 2502/2606 14007KT P6SM FEW100 SCT150 BKN200
     FM250300 19009KT P6SM BKN100 OVC200
     FM250500 24010KT P6SM BKN100 OVC200
     FM251000 01012KT P6SM VCSH SCT050 BKN070
     FM251500 01018G27KT P6SM SCT025 OVC040 PROB30 2515/2521 4SM
      -SHRASN
     FM252100 35015G25KT P6SM VCSH SCT030 BKN050
     FM260200 26010KT P6SM SCT030 BKN050=



000
FTUS45 KBOU 250143 AAB
TAFDEN
TAF AMD
KDEN 250143Z 2502/2606 14007KT P6SM FEW100 SCT150 BKN200
     FM250300 19009KT P6SM BKN100 OVC200
     FM250500 24010KT P6SM BKN100 OVC200
     FM251000 01012KT P6SM VCSH SCT050 BKN070
     FM251500 01018G27KT P6SM SCT025 OVC040 PROB30 2515/2521 4SM
      -SHRASN
     FM252100 35015G25KT P6SM VCSH SCT030 BKN050
     FM260200 26010KT P6SM SCT030 BKN050=



000
FTUS45 KBOU 250014 AAA
TAFDEN
TAF AMD
KDEN 250014Z 2500/2606 14007KT P6SM FEW100 SCT150 BKN200
     FM250300 24009KT P6SM BKN100 OVC200
     FM251000 01012KT P6SM VCSH SCT050 BKN070
     FM251500 01018G27KT P6SM SCT025 OVC040 PROB30 2515/2521 4SM
      -SHRASN
     FM252100 35015G25KT P6SM VCSH SCT030 BKN050
     FM260200 26010KT P6SM SCT030 BKN050=



000
FTUS45 KBOU 250014 AAA
TAFDEN
TAF AMD
KDEN 250014Z 2500/2606 14007KT P6SM FEW100 SCT150 BKN200
     FM250300 24009KT P6SM BKN100 OVC200
     FM251000 01012KT P6SM VCSH SCT050 BKN070
     FM251500 01018G27KT P6SM SCT025 OVC040 PROB30 2515/2521 4SM
      -SHRASN
     FM252100 35015G25KT P6SM VCSH SCT030 BKN050
     FM260200 26010KT P6SM SCT030 BKN050=



000
FTUS45 KBOU 250014 CCA
TAFDEN
TAF COR
KDEN 250014Z 2500/2606 14007KT P6SM FEW100 SCT150 BKN200
     FM250200 24009KT P6SM BKN100 OVC200
     FM251000 01012KT P6SM VCSH SCT050 BKN070
     FM251500 01018G27KT P6SM SCT025 OVC040 PROB30 2515/2521 4SM
      -SHRASN
     FM252100 35015G25KT P6SM VCSH SCT030 BKN050
     FM260200 26010KT P6SM SCT030 BKN050=



000
FTUS45 KBOU 250014 CCA
TAFDEN
TAF COR
KDEN 250014Z 2500/2606 14007KT P6SM FEW100 SCT150 BKN200
     FM250200 24009KT P6SM BKN100 OVC200
     FM251000 01012KT P6SM VCSH SCT050 BKN070
     FM251500 01018G27KT P6SM SCT025 OVC040 PROB30 2515/2521 4SM
      -SHRASN
     FM252100 35015G25KT P6SM VCSH SCT030 BKN050
     FM260200 26010KT P6SM SCT030 BKN050=



000
FTUS45 KBOU 250014 AAA
TAFDEN
TAF AMD
KDEN 250014Z 2500/2606 14007KT P6SM FEW100 SCT150 BKN200
     FM250300 24009KT P6SM BKN100 OVC200
     FM251000 01012KT P6SM VCSH SCT050 BKN070
     FM251500 01018G27KT P6SM SCT025 OVC040 PROB30 2515/2521 4SM
      -SHRASN
     FM252100 35015G25KT P6SM VCSH SCT030 BKN050
     FM260200 26010KT P6SM SCT030 BKN050=



000
FTUS45 KBOU 250014 CCA
TAFDEN
TAF COR
KDEN 250014Z 2500/2606 14007KT P6SM FEW100 SCT150 BKN200
     FM250200 24009KT P6SM BKN100 OVC200
     FM251000 01012KT P6SM VCSH SCT050 BKN070
     FM251500 01018G27KT P6SM SCT025 OVC040 PROB30 2515/2521 4SM
      -SHRASN
     FM252100 35015G25KT P6SM VCSH SCT030 BKN050
     FM260200 26010KT P6SM SCT030 BKN050=



000
FTUS45 KBOU 250014 CCA
TAFDEN
TAF COR
KDEN 250014Z 2500/2606 14007KT P6SM FEW100 SCT150 BKN200
     FM250200 24009KT P6SM BKN100 OVC200
     FM251000 01012KT P6SM VCSH SCT050 BKN070
     FM251500 01018G27KT P6SM SCT025 OVC040 PROB30 2515/2521 4SM
      -SHRASN
     FM252100 35015G25KT P6SM VCSH SCT030 BKN050
     FM260200 26010KT P6SM SCT030 BKN050=



000
FTUS45 KBOU 242328
TAFAPA
TAF
KAPA 242328Z 2500/2524 27012G21KT P6SM FEW110 BKN220
     FM250100 25008KT P6SM SCT110 BKN200
     FM250300 22008KT P6SM SCT060 BKN100 OVC200
     FM250900 24010KT P6SM SCT030 BKN060
     FM251100 01014KT P6SM VCSH SCT050 BKN070
     FM251500 01018G27KT P6SM SCT020 OVC050
      TEMPO 2515/2518 3SM -SHRASN SCT015 OVC030
     FM252100 01014G22KT P6SM SCT030 BKN070=



000
FTUS45 KBOU 242328
TAFDEN
TAF
KDEN 242328Z 2500/2606 30014G24KT P6SM FEW080 SCT120 BKN220
     FM250100 26012KT P6SM SCT120 BKN200
     FM250300 24008KT P6SM BKN100 OVC200
     FM251000 01012KT P6SM VCSH SCT050 BKN070
     FM251500 01018G27KT P6SM SCT025 OVC040 PROB30 2515/2521 4SM
      -SHRASN
     FM252100 35015G25KT P6SM VCSH SCT030 BKN050
     FM260200 26010KT P6SM SCT030 BKN050=



000
FTUS45 KBOU 242328
TAFAPA
TAF
KAPA 242328Z 2500/2524 27012G21KT P6SM FEW110 BKN220
     FM250100 25008KT P6SM SCT110 BKN200
     FM250300 22008KT P6SM SCT060 BKN100 OVC200
     FM250900 24010KT P6SM SCT030 BKN060
     FM251100 01014KT P6SM VCSH SCT050 BKN070
     FM251500 01018G27KT P6SM SCT020 OVC050
      TEMPO 2515/2518 3SM -SHRASN SCT015 OVC030
     FM252100 01014G22KT P6SM SCT030 BKN070=



000
FTUS45 KBOU 242328
TAFBJC
TAF
KBJC 242328Z 2500/2524 27014KT P6SM FEW070 SCT120 BKN220
      TEMPO 2500/2501 25022G32KT
     FM250100 26015G25KT P6SM SCT120 BKN200
     FM250300 24012KT P6SM SCT080 BKN100 OVC200
     FM251100 33012KT P6SM VCSH SCT050 BKN070
     FM251500 35018G27KT P6SM SCT030 OVC070
      TEMPO 2515/2518 4SM -SHRASN BKN030
     FM251800 01012G22KT P6SM SCT030 BKN050=



000
FTUS45 KBOU 242328
TAFBJC
TAF
KBJC 242328Z 2500/2524 27014KT P6SM FEW070 SCT120 BKN220
      TEMPO 2500/2501 25022G32KT
     FM250100 26015G25KT P6SM SCT120 BKN200
     FM250300 24012KT P6SM SCT080 BKN100 OVC200
     FM251100 33012KT P6SM VCSH SCT050 BKN070
     FM251500 35018G27KT P6SM SCT030 OVC070
      TEMPO 2515/2518 4SM -SHRASN BKN030
     FM251800 01012G22KT P6SM SCT030 BKN050=



000
FTUS45 KBOU 242328
TAFAPA
TAF
KAPA 242328Z 2500/2524 27012G21KT P6SM FEW110 BKN220
     FM250100 25008KT P6SM SCT110 BKN200
     FM250300 22008KT P6SM SCT060 BKN100 OVC200
     FM250900 24010KT P6SM SCT030 BKN060
     FM251100 01014KT P6SM VCSH SCT050 BKN070
     FM251500 01018G27KT P6SM SCT020 OVC050
      TEMPO 2515/2518 3SM -SHRASN SCT015 OVC030
     FM252100 01014G22KT P6SM SCT030 BKN070=



000
FTUS45 KBOU 242328
TAFBJC
TAF
KBJC 242328Z 2500/2524 27014KT P6SM FEW070 SCT120 BKN220
      TEMPO 2500/2501 25022G32KT
     FM250100 26015G25KT P6SM SCT120 BKN200
     FM250300 24012KT P6SM SCT080 BKN100 OVC200
     FM251100 33012KT P6SM VCSH SCT050 BKN070
     FM251500 35018G27KT P6SM SCT030 OVC070
      TEMPO 2515/2518 4SM -SHRASN BKN030
     FM251800 01012G22KT P6SM SCT030 BKN050=



000
FTUS45 KBOU 242328
TAFDEN
TAF
KDEN 242328Z 2500/2606 30014G24KT P6SM FEW080 SCT120 BKN220
     FM250100 26012KT P6SM SCT120 BKN200
     FM250300 24008KT P6SM BKN100 OVC200
     FM251000 01012KT P6SM VCSH SCT050 BKN070
     FM251500 01018G27KT P6SM SCT025 OVC040 PROB30 2515/2521 4SM
      -SHRASN
     FM252100 35015G25KT P6SM VCSH SCT030 BKN050
     FM260200 26010KT P6SM SCT030 BKN050=



000
FTUS45 KBOU 242328
TAFDEN
TAF
KDEN 242328Z 2500/2606 30014G24KT P6SM FEW080 SCT120 BKN220
     FM250100 26012KT P6SM SCT120 BKN200
     FM250300 24008KT P6SM BKN100 OVC200
     FM251000 01012KT P6SM VCSH SCT050 BKN070
     FM251500 01018G27KT P6SM SCT025 OVC040 PROB30 2515/2521 4SM
      -SHRASN
     FM252100 35015G25KT P6SM VCSH SCT030 BKN050
     FM260200 26010KT P6SM SCT030 BKN050=



000
FTUS45 KBOU 242328
TAFAPA
TAF
KAPA 242328Z 2500/2524 27012G21KT P6SM FEW110 BKN220
     FM250100 25008KT P6SM SCT110 BKN200
     FM250300 22008KT P6SM SCT060 BKN100 OVC200
     FM250900 24010KT P6SM SCT030 BKN060
     FM251100 01014KT P6SM VCSH SCT050 BKN070
     FM251500 01018G27KT P6SM SCT020 OVC050
      TEMPO 2515/2518 3SM -SHRASN SCT015 OVC030
     FM252100 01014G22KT P6SM SCT030 BKN070=



000
FTUS45 KBOU 242328
TAFBJC
TAF
KBJC 242328Z 2500/2524 27014KT P6SM FEW070 SCT120 BKN220
      TEMPO 2500/2501 25022G32KT
     FM250100 26015G25KT P6SM SCT120 BKN200
     FM250300 24012KT P6SM SCT080 BKN100 OVC200
     FM251100 33012KT P6SM VCSH SCT050 BKN070
     FM251500 35018G27KT P6SM SCT030 OVC070
      TEMPO 2515/2518 4SM -SHRASN BKN030
     FM251800 01012G22KT P6SM SCT030 BKN050=



000
FTUS45 KBOU 242328
TAFDEN
TAF
KDEN 242328Z 2500/2606 30014G24KT P6SM FEW080 SCT120 BKN220
     FM250100 26012KT P6SM SCT120 BKN200
     FM250300 24008KT P6SM BKN100 OVC200
     FM251000 01012KT P6SM VCSH SCT050 BKN070
     FM251500 01018G27KT P6SM SCT025 OVC040 PROB30 2515/2521 4SM
      -SHRASN
     FM252100 35015G25KT P6SM VCSH SCT030 BKN050
     FM260200 26010KT P6SM SCT030 BKN050=



000
FTUS45 KBOU 242258 AAD
TAFAPA
TAF AMD
KAPA 242258Z 2423/2518 27012G21KT P6SM FEW110 BKN220
     FM250100 25008KT P6SM SCT110 BKN200
     FM250300 22008KT P6SM BKN100 OVC200
     FM251100 01012KT P6SM VCSH SCT050 BKN070
     FM251500 01012G20KT P6SM SCT020 OVC035
      TEMPO 2515/2518 3SM -SHSN SCT015=



000
FTUS45 KBOU 242258 AAD
TAFAPA
TAF AMD
KAPA 242258Z 2423/2518 27012G21KT P6SM FEW110 BKN220
     FM250100 25008KT P6SM SCT110 BKN200
     FM250300 22008KT P6SM BKN100 OVC200
     FM251100 01012KT P6SM VCSH SCT050 BKN070
     FM251500 01012G20KT P6SM SCT020 OVC035
      TEMPO 2515/2518 3SM -SHSN SCT015=



000
FTUS45 KBOU 242258 AAD
TAFAPA
TAF AMD
KAPA 242258Z 2423/2518 27012G21KT P6SM FEW110 BKN220
     FM250100 25008KT P6SM SCT110 BKN200
     FM250300 22008KT P6SM BKN100 OVC200
     FM251100 01012KT P6SM VCSH SCT050 BKN070
     FM251500 01012G20KT P6SM SCT020 OVC035
      TEMPO 2515/2518 3SM -SHSN SCT015=



000
FTUS45 KBOU 242258 AAD
TAFAPA
TAF AMD
KAPA 242258Z 2423/2518 27012G21KT P6SM FEW110 BKN220
     FM250100 25008KT P6SM SCT110 BKN200
     FM250300 22008KT P6SM BKN100 OVC200
     FM251100 01012KT P6SM VCSH SCT050 BKN070
     FM251500 01012G20KT P6SM SCT020 OVC035
      TEMPO 2515/2518 3SM -SHSN SCT015=



000
FTUS45 KBOU 242228 AAC
TAFAPA
TAF AMD
KAPA 242228Z 2422/2518 VRB05KT P6SM FEW110 BKN220
     FM242240 25012G21KT P6SM FEW110 BKN220
     FM250100 25008KT P6SM SCT110 BKN200
     FM250300 22008KT P6SM BKN100 OVC200
     FM251100 01012KT P6SM VCSH SCT050 BKN070
     FM251500 01012G20KT P6SM SCT020 OVC035
      TEMPO 2515/2518 3SM -SHSN SCT015=



000
FTUS45 KBOU 242228 AAC
TAFAPA
TAF AMD
KAPA 242228Z 2422/2518 VRB05KT P6SM FEW110 BKN220
     FM242240 25012G21KT P6SM FEW110 BKN220
     FM250100 25008KT P6SM SCT110 BKN200
     FM250300 22008KT P6SM BKN100 OVC200
     FM251100 01012KT P6SM VCSH SCT050 BKN070
     FM251500 01012G20KT P6SM SCT020 OVC035
      TEMPO 2515/2518 3SM -SHSN SCT015=



000
FTUS45 KBOU 242228 AAC
TAFAPA
TAF AMD
KAPA 242228Z 2422/2518 VRB05KT P6SM FEW110 BKN220
     FM242240 25012G21KT P6SM FEW110 BKN220
     FM250100 25008KT P6SM SCT110 BKN200
     FM250300 22008KT P6SM BKN100 OVC200
     FM251100 01012KT P6SM VCSH SCT050 BKN070
     FM251500 01012G20KT P6SM SCT020 OVC035
      TEMPO 2515/2518 3SM -SHSN SCT015=



000
FTUS45 KBOU 242105 AAA
TAFDEN
TAF AMD
KDEN 242105Z 2421/2524 30014G24KT P6SM FEW080 SCT120 BKN220
     FM250100 26012KT P6SM SCT120 BKN200
     FM250300 24008KT P6SM BKN100 OVC200
     FM251100 01012KT P6SM VCSH SCT050 BKN070
     FM251500 01012G20KT P6SM SCT025 OVC040 PROB30 2515/2521 4SM
      -SHRASN BKN020
     FM252100 35012G20KT P6SM VCSH SCT030 BKN050=



000
FTUS45 KBOU 242105 AAB
TAFBJC
TAF AMD
KBJC 242105Z 2421/2518 27014KT P6SM FEW070 SCT120 BKN220
      TEMPO 2421/2501 27022G32KT
     FM250100 26015G25KT P6SM SCT120 BKN200
     FM250300 24012KT P6SM BKN100 OVC200
     FM251100 35012KT P6SM VCSH SCT050 BKN070
     FM251500 35012G20KT P6SM SCT030 OVC040
      TEMPO 2515/2518 4SM -SHRASN BKN025=



000
FTUS45 KBOU 242105 AAB
TAFAPA
TAF AMD
KAPA 242105Z 2421/2518 30012G20KT P6SM FEW110 BKN220
     FM250100 25008KT P6SM SCT110 BKN200
     FM250300 22008KT P6SM BKN100 OVC200
     FM251100 01012KT P6SM VCSH SCT050 BKN070
     FM251500 01012G20KT P6SM SCT020 OVC035
      TEMPO 2515/2518 3SM -SHSN SCT015=



000
FTUS45 KBOU 241809 AAA
TAFAPA
TAF AMD
KAPA 241809Z 2418/2518 30012G20KT P6SM FEW110 SCT220
     FM250100 25008KT P6SM SCT110 BKN200
     FM250300 22008KT P6SM BKN100 OVC200
     FM251100 01012KT P6SM VCSH SCT050 BKN070
     FM251500 01012G20KT P6SM SCT020 OVC035
      TEMPO 2515/2518 3SM -SHSN SCT015=



000
FTUS45 KBOU 241809 AAA
TAFAPA
TAF AMD
KAPA 241809Z 2418/2518 30012G20KT P6SM FEW110 SCT220
     FM250100 25008KT P6SM SCT110 BKN200
     FM250300 22008KT P6SM BKN100 OVC200
     FM251100 01012KT P6SM VCSH SCT050 BKN070
     FM251500 01012G20KT P6SM SCT020 OVC035
      TEMPO 2515/2518 3SM -SHSN SCT015=



000
FTUS45 KBOU 241809 AAA
TAFAPA
TAF AMD
KAPA 241809Z 2418/2518 30012G20KT P6SM FEW110 SCT220
     FM250100 25008KT P6SM SCT110 BKN200
     FM250300 22008KT P6SM BKN100 OVC200
     FM251100 01012KT P6SM VCSH SCT050 BKN070
     FM251500 01012G20KT P6SM SCT020 OVC035
      TEMPO 2515/2518 3SM -SHSN SCT015=



000
FTUS45 KBOU 241809 AAA
TAFAPA
TAF AMD
KAPA 241809Z 2418/2518 30012G20KT P6SM FEW110 SCT220
     FM250100 25008KT P6SM SCT110 BKN200
     FM250300 22008KT P6SM BKN100 OVC200
     FM251100 01012KT P6SM VCSH SCT050 BKN070
     FM251500 01012G20KT P6SM SCT020 OVC035
      TEMPO 2515/2518 3SM -SHSN SCT015=



000
FTUS45 KBOU 241808 AAA
TAFBJC
TAF AMD
KBJC 241808Z 2418/2518 30025G35KT P6SM FEW070 SCT120
     FM250100 26015G25KT P6SM SCT120 BKN200
     FM250300 24012KT P6SM BKN100 OVC200
     FM251100 35012KT P6SM VCSH SCT050 BKN070
     FM251500 35012G20KT P6SM SCT030 OVC040
      TEMPO 2515/2518 4SM -SHRASN BKN025=



000
FTUS45 KBOU 241808 AAA
TAFBJC
TAF AMD
KBJC 241808Z 2418/2518 30025G35KT P6SM FEW070 SCT120
     FM250100 26015G25KT P6SM SCT120 BKN200
     FM250300 24012KT P6SM BKN100 OVC200
     FM251100 35012KT P6SM VCSH SCT050 BKN070
     FM251500 35012G20KT P6SM SCT030 OVC040
      TEMPO 2515/2518 4SM -SHRASN BKN025=



000
FTUS45 KBOU 241738 CCA
TAFAPA
TAF COR
KAPA 241738Z 2418/2518 34006KT P6SM FEW110 SCT220 WS005/29025KT
     FM242000 32008KT P6SM FEW110 SCT220
     FM250100 25008KT P6SM SCT110 BKN200
     FM250300 22008KT P6SM BKN100 OVC200
     FM251100 01012KT P6SM VCSH SCT050 BKN070
     FM251500 01012G20KT P6SM SCT020 OVC035
      TEMPO 2515/2518 3SM -SHSN SCT015=



000
FTUS45 KBOU 241738 CCA
TAFAPA
TAF COR
KAPA 241738Z 2418/2518 34006KT P6SM FEW110 SCT220 WS005/29025KT
     FM242000 32008KT P6SM FEW110 SCT220
     FM250100 25008KT P6SM SCT110 BKN200
     FM250300 22008KT P6SM BKN100 OVC200
     FM251100 01012KT P6SM VCSH SCT050 BKN070
     FM251500 01012G20KT P6SM SCT020 OVC035
      TEMPO 2515/2518 3SM -SHSN SCT015=



000
FTUS45 KBOU 241738 CCA
TAFAPA
TAF COR
KAPA 241738Z 2418/2518 34006KT P6SM FEW110 SCT220 WS005/29025KT
     FM242000 32008KT P6SM FEW110 SCT220
     FM250100 25008KT P6SM SCT110 BKN200
     FM250300 22008KT P6SM BKN100 OVC200
     FM251100 01012KT P6SM VCSH SCT050 BKN070
     FM251500 01012G20KT P6SM SCT020 OVC035
      TEMPO 2515/2518 3SM -SHSN SCT015=



000
FTUS45 KBOU 241731
TAFAPA
TAF
KAPA 241731Z 2418/2518 34008KT P6SM FEW080 SCT110
     FM250100 25008KT P6SM SCT120 BKN200
     FM250300 22008KT P6SM BKN100 OVC200
     FM251100 01012KT P6SM VCSH SCT050 BKN070
     FM251500 01012G20KT P6SM SCT020 OVC035
      TEMPO 2515/2518 3SM -SHSN SCT015=



000
FTUS45 KBOU 241731
TAFDEN
TAF
KDEN 241731Z 2418/2524 30014G24KT P6SM FEW080 SCT120
     FM250100 26012KT P6SM SCT120 BKN200
     FM250300 24008KT P6SM BKN100 OVC200
     FM251100 01012KT P6SM VCSH SCT050 BKN070
     FM251500 01012G20KT P6SM SCT025 OVC040 PROB30 2515/2521 4SM
      -SHRASN BKN020
     FM252100 35012G20KT P6SM VCSH SCT030 BKN050=



000
FTUS45 KBOU 241731
TAFDEN
TAF
KDEN 241731Z 2418/2524 30014G24KT P6SM FEW080 SCT120
     FM250100 26012KT P6SM SCT120 BKN200
     FM250300 24008KT P6SM BKN100 OVC200
     FM251100 01012KT P6SM VCSH SCT050 BKN070
     FM251500 01012G20KT P6SM SCT025 OVC040 PROB30 2515/2521 4SM
      -SHRASN BKN020
     FM252100 35012G20KT P6SM VCSH SCT030 BKN050=



000
FTUS45 KBOU 241731
TAFBJC
TAF
KBJC 241731Z 2418/2518 30015G25KT P6SM FEW100 SCT200
     FM250100 26015KT P6SM SCT120 BKN200
     FM250300 24012KT P6SM BKN100 OVC200
     FM251100 35012KT P6SM VCSH SCT050 BKN070
     FM251500 35012G20KT P6SM SCT030 OVC040
      TEMPO 2515/2518 4SM -SHRASN BKN025=



000
FTUS45 KBOU 241731
TAFAPA
TAF
KAPA 241731Z 2418/2518 34008KT P6SM FEW080 SCT110
     FM250100 25008KT P6SM SCT120 BKN200
     FM250300 22008KT P6SM BKN100 OVC200
     FM251100 01012KT P6SM VCSH SCT050 BKN070
     FM251500 01012G20KT P6SM SCT020 OVC035
      TEMPO 2515/2518 3SM -SHSN SCT015=



000
FTUS45 KBOU 241731
TAFBJC
TAF
KBJC 241731Z 2418/2518 30015G25KT P6SM FEW100 SCT200
     FM250100 26015KT P6SM SCT120 BKN200
     FM250300 24012KT P6SM BKN100 OVC200
     FM251100 35012KT P6SM VCSH SCT050 BKN070
     FM251500 35012G20KT P6SM SCT030 OVC040
      TEMPO 2515/2518 4SM -SHRASN BKN025=



000
FTUS45 KBOU 241731
TAFDEN
TAF
KDEN 241731Z 2418/2524 30014G24KT P6SM FEW080 SCT120
     FM250100 26012KT P6SM SCT120 BKN200
     FM250300 24008KT P6SM BKN100 OVC200
     FM251100 01012KT P6SM VCSH SCT050 BKN070
     FM251500 01012G20KT P6SM SCT025 OVC040 PROB30 2515/2521 4SM
      -SHRASN BKN020
     FM252100 35012G20KT P6SM VCSH SCT030 BKN050=



000
FTUS45 KBOU 241731
TAFBJC
TAF
KBJC 241731Z 2418/2518 30015G25KT P6SM FEW100 SCT200
     FM250100 26015KT P6SM SCT120 BKN200
     FM250300 24012KT P6SM BKN100 OVC200
     FM251100 35012KT P6SM VCSH SCT050 BKN070
     FM251500 35012G20KT P6SM SCT030 OVC040
      TEMPO 2515/2518 4SM -SHRASN BKN025=



000
FTUS45 KBOU 241731
TAFAPA
TAF
KAPA 241731Z 2418/2518 34008KT P6SM FEW080 SCT110
     FM250100 25008KT P6SM SCT120 BKN200
     FM250300 22008KT P6SM BKN100 OVC200
     FM251100 01012KT P6SM VCSH SCT050 BKN070
     FM251500 01012G20KT P6SM SCT020 OVC035
      TEMPO 2515/2518 3SM -SHSN SCT015=



000
FTUS45 KBOU 241731
TAFAPA
TAF
KAPA 241731Z 2418/2518 34008KT P6SM FEW080 SCT110
     FM250100 25008KT P6SM SCT120 BKN200
     FM250300 22008KT P6SM BKN100 OVC200
     FM251100 01012KT P6SM VCSH SCT050 BKN070
     FM251500 01012G20KT P6SM SCT020 OVC035
      TEMPO 2515/2518 3SM -SHSN SCT015=



000
FTUS45 KBOU 241731
TAFBJC
TAF
KBJC 241731Z 2418/2518 30015G25KT P6SM FEW100 SCT200
     FM250100 26015KT P6SM SCT120 BKN200
     FM250300 24012KT P6SM BKN100 OVC200
     FM251100 35012KT P6SM VCSH SCT050 BKN070
     FM251500 35012G20KT P6SM SCT030 OVC040
      TEMPO 2515/2518 4SM -SHRASN BKN025=



000
FTUS45 KBOU 241731
TAFDEN
TAF
KDEN 241731Z 2418/2524 30014G24KT P6SM FEW080 SCT120
     FM250100 26012KT P6SM SCT120 BKN200
     FM250300 24008KT P6SM BKN100 OVC200
     FM251100 01012KT P6SM VCSH SCT050 BKN070
     FM251500 01012G20KT P6SM SCT025 OVC040 PROB30 2515/2521 4SM
      -SHRASN BKN020
     FM252100 35012G20KT P6SM VCSH SCT030 BKN050=



000
FTUS45 KBOU 241630 CCA
TAFDEN
TAF COR
KDEN 241630Z 2416/2518 30015KT P6SM FEW080 SCT110
     FM241800 30015G25KT P6SM FEW080 SCT110
     FM242200 31012G20KT P6SM FEW120 SCT200
     FM250100 28012KT P6SM SCT120 BKN200
     FM250300 24008KT P6SM BKN100 OVC200
     FM251300 36015KT P6SM VCSH SCT050 BKN080=



000
FTUS45 KBOU 241630 CCA
TAFDEN
TAF COR
KDEN 241630Z 2416/2518 30015KT P6SM FEW080 SCT110
     FM241800 30015G25KT P6SM FEW080 SCT110
     FM242200 31012G20KT P6SM FEW120 SCT200
     FM250100 28012KT P6SM SCT120 BKN200
     FM250300 24008KT P6SM BKN100 OVC200
     FM251300 36015KT P6SM VCSH SCT050 BKN080=



000
FTUS45 KBOU 241630 CCA
TAFDEN
TAF COR
KDEN 241630Z 2416/2518 30015KT P6SM FEW080 SCT110
     FM241800 30015G25KT P6SM FEW080 SCT110
     FM242200 31012G20KT P6SM FEW120 SCT200
     FM250100 28012KT P6SM SCT120 BKN200
     FM250300 24008KT P6SM BKN100 OVC200
     FM251300 36015KT P6SM VCSH SCT050 BKN080=



000
FTUS45 KBOU 241630 CCA
TAFDEN
TAF COR
KDEN 241630Z 2416/2518 30015KT P6SM FEW080 SCT110
     FM241800 30015G25KT P6SM FEW080 SCT110
     FM242200 31012G20KT P6SM FEW120 SCT200
     FM250100 28012KT P6SM SCT120 BKN200
     FM250300 24008KT P6SM BKN100 OVC200
     FM251300 36015KT P6SM VCSH SCT050 BKN080=



000
FTUS45 KBOU 241611 AAD
TAFAPA
TAF AMD
KAPA 241611Z 2416/2512 34008KT P6SM FEW120 SCT200
     FM241800 33012G20KT P6SM SCT110 SCT200
     FM242200 30012KT P6SM FEW120 BKN200
     FM250200 25010KT P6SM SCT120 BKN200
     FM250400 22008KT P6SM SCT120 BKN200=



000
FTUS45 KBOU 241611 AAD
TAFAPA
TAF AMD
KAPA 241611Z 2416/2512 34008KT P6SM FEW120 SCT200
     FM241800 33012G20KT P6SM SCT110 SCT200
     FM242200 30012KT P6SM FEW120 BKN200
     FM250200 25010KT P6SM SCT120 BKN200
     FM250400 22008KT P6SM SCT120 BKN200=



000
FTUS45 KBOU 241606 AAB
TAFDEN
TAF AMD
KDEN 241606Z 2416/2518 30025KT P6SM FEW080 SCT110
     FM241800 30015G25KT P6SM FEW080 SCT110
     FM242200 31012G20KT P6SM FEW120 SCT200
     FM250100 28012KT P6SM SCT120 BKN200
     FM250300 24008KT P6SM BKN100 OVC200
     FM251300 36015KT P6SM VCSH SCT050 BKN080=



000
FTUS45 KBOU 241606 AAB
TAFDEN
TAF AMD
KDEN 241606Z 2416/2518 30025KT P6SM FEW080 SCT110
     FM241800 30015G25KT P6SM FEW080 SCT110
     FM242200 31012G20KT P6SM FEW120 SCT200
     FM250100 28012KT P6SM SCT120 BKN200
     FM250300 24008KT P6SM BKN100 OVC200
     FM251300 36015KT P6SM VCSH SCT050 BKN080=



000
FTUS45 KBOU 241606 AAB
TAFDEN
TAF AMD
KDEN 241606Z 2416/2518 30025KT P6SM FEW080 SCT110
     FM241800 30015G25KT P6SM FEW080 SCT110
     FM242200 31012G20KT P6SM FEW120 SCT200
     FM250100 28012KT P6SM SCT120 BKN200
     FM250300 24008KT P6SM BKN100 OVC200
     FM251300 36015KT P6SM VCSH SCT050 BKN080=



000
FTUS45 KBOU 241500 AAC
TAFAPA
TAF AMD
KAPA 241500Z 2415/2512 13005KT P6SM FEW120 SCT200 WS010/26030KT
     FM241600 26015KT P6SM FEW120 SCT200
     FM241700 30018G28KT P6SM SCT110 SCT200
     FM242200 30015KT P6SM FEW120 BKN200
     FM250200 25010KT P6SM SCT120 BKN200
     FM250400 22008KT P6SM SCT120 BKN200=



000
FTUS45 KBOU 241500 AAC
TAFAPA
TAF AMD
KAPA 241500Z 2415/2512 13005KT P6SM FEW120 SCT200 WS010/26030KT
     FM241600 26015KT P6SM FEW120 SCT200
     FM241700 30018G28KT P6SM SCT110 SCT200
     FM242200 30015KT P6SM FEW120 BKN200
     FM250200 25010KT P6SM SCT120 BKN200
     FM250400 22008KT P6SM SCT120 BKN200=



000
FTUS45 KBOU 241500 AAC
TAFAPA
TAF AMD
KAPA 241500Z 2415/2512 13005KT P6SM FEW120 SCT200 WS010/26030KT
     FM241600 26015KT P6SM FEW120 SCT200
     FM241700 30018G28KT P6SM SCT110 SCT200
     FM242200 30015KT P6SM FEW120 BKN200
     FM250200 25010KT P6SM SCT120 BKN200
     FM250400 22008KT P6SM SCT120 BKN200=



000
FTUS45 KBOU 241458 AAA
TAFDEN
TAF AMD
KDEN 241458Z 2415/2518 26015G22KT P6SM FEW080 SCT110
     FM241600 30020G30KT P6SM FEW110 SCT200
     FM242200 31012G20KT P6SM FEW120 BKN200
     FM250100 28012KT P6SM SCT120 BKN200
     FM250300 24008KT P6SM BKN100 OVC200
     FM251300 36015KT P6SM VCSH SCT050 BKN080=



000
FTUS45 KBOU 241458 AAA
TAFDEN
TAF AMD
KDEN 241458Z 2415/2518 26015G22KT P6SM FEW080 SCT110
     FM241600 30020G30KT P6SM FEW110 SCT200
     FM242200 31012G20KT P6SM FEW120 BKN200
     FM250100 28012KT P6SM SCT120 BKN200
     FM250300 24008KT P6SM BKN100 OVC200
     FM251300 36015KT P6SM VCSH SCT050 BKN080=



000
FTUS45 KBOU 241458 AAA
TAFDEN
TAF AMD
KDEN 241458Z 2415/2518 26015G22KT P6SM FEW080 SCT110
     FM241600 30020G30KT P6SM FEW110 SCT200
     FM242200 31012G20KT P6SM FEW120 BKN200
     FM250100 28012KT P6SM SCT120 BKN200
     FM250300 24008KT P6SM BKN100 OVC200
     FM251300 36015KT P6SM VCSH SCT050 BKN080=



000
FTUS45 KBOU 241457 AAA
TAFBJC
TAF AMD
KBJC 241457Z 2415/2512 28018G28KT P6SM FEW100 SCT200
     FM242300 28015KT P6SM FEW120 BKN200
     FM250200 25010KT P6SM SCT120 BKN200=



000
FTUS45 KBOU 241457 AAA
TAFBJC
TAF AMD
KBJC 241457Z 2415/2512 28018G28KT P6SM FEW100 SCT200
     FM242300 28015KT P6SM FEW120 BKN200
     FM250200 25010KT P6SM SCT120 BKN200=



000
FTUS45 KBOU 241403 AAB
TAFAPA
TAF AMD
KAPA 241403Z 2414/2512 23008KT P6SM FEW120 SCT200
     FM241500 26015KT P6SM FEW120 SCT200
     FM241600 30018G28KT P6SM SCT110 SCT200
     FM242200 30015KT P6SM FEW120 BKN200
     FM250200 25010KT P6SM SCT120 BKN200
     FM250400 22008KT P6SM SCT120 BKN200=



000
FTUS45 KBOU 241403 AAB
TAFAPA
TAF AMD
KAPA 241403Z 2414/2512 23008KT P6SM FEW120 SCT200
     FM241500 26015KT P6SM FEW120 SCT200
     FM241600 30018G28KT P6SM SCT110 SCT200
     FM242200 30015KT P6SM FEW120 BKN200
     FM250200 25010KT P6SM SCT120 BKN200
     FM250400 22008KT P6SM SCT120 BKN200=



000
FTUS45 KBOU 241334 AAA
TAFAPA
TAF AMD
KAPA 241334Z 2414/2512 26015KT P6SM FEW090 SCT110 SCT200
     FM241600 30018G28KT P6SM SCT110 SCT200
     FM242200 30015KT P6SM FEW120 BKN200
     FM250200 25010KT P6SM SCT120 BKN200
     FM250400 22008KT P6SM SCT120 BKN200=



000
FTUS45 KBOU 241334 AAA
TAFAPA
TAF AMD
KAPA 241334Z 2414/2512 26015KT P6SM FEW090 SCT110 SCT200
     FM241600 30018G28KT P6SM SCT110 SCT200
     FM242200 30015KT P6SM FEW120 BKN200
     FM250200 25010KT P6SM SCT120 BKN200
     FM250400 22008KT P6SM SCT120 BKN200=



000
FTUS45 KBOU 241334 AAA
TAFAPA
TAF AMD
KAPA 241334Z 2414/2512 26015KT P6SM FEW090 SCT110 SCT200
     FM241600 30018G28KT P6SM SCT110 SCT200
     FM242200 30015KT P6SM FEW120 BKN200
     FM250200 25010KT P6SM SCT120 BKN200
     FM250400 22008KT P6SM SCT120 BKN200=



000
FTUS45 KBOU 241334 AAA
TAFAPA
TAF AMD
KAPA 241334Z 2414/2512 26015KT P6SM FEW090 SCT110 SCT200
     FM241600 30018G28KT P6SM SCT110 SCT200
     FM242200 30015KT P6SM FEW120 BKN200
     FM250200 25010KT P6SM SCT120 BKN200
     FM250400 22008KT P6SM SCT120 BKN200=



000
FTUS45 KBOU 241120
TAFBJC
TAF
KBJC 241120Z 2412/2512 26008KT P6SM SCT120 BKN200
     FM241600 28018G28KT P6SM FEW120 SCT200
     FM242300 28015KT P6SM FEW120 BKN200
     FM250200 25010KT P6SM SCT120 BKN200=



000
FTUS45 KBOU 241120
TAFAPA
TAF
KAPA 241120Z 2412/2512 30012KT P6SM SCT080 BKN200
     FM241600 30018G28KT P6SM SCT120 SCT200
     FM242200 30015KT P6SM FEW120 BKN200
     FM250200 25010KT P6SM SCT120 BKN200
     FM250400 22008KT P6SM SCT120 BKN200=



000
FTUS45 KBOU 241120
TAFAPA
TAF
KAPA 241120Z 2412/2512 30012KT P6SM SCT080 BKN200
     FM241600 30018G28KT P6SM SCT120 SCT200
     FM242200 30015KT P6SM FEW120 BKN200
     FM250200 25010KT P6SM SCT120 BKN200
     FM250400 22008KT P6SM SCT120 BKN200=



000
FTUS45 KBOU 241120
TAFBJC
TAF
KBJC 241120Z 2412/2512 26008KT P6SM SCT120 BKN200
     FM241600 28018G28KT P6SM FEW120 SCT200
     FM242300 28015KT P6SM FEW120 BKN200
     FM250200 25010KT P6SM SCT120 BKN200=



000
FTUS45 KBOU 241120
TAFDEN
TAF
KDEN 241120Z 2412/2518 25013KT P6SM SCT080 BKN200
     FM241500 31020G30KT P6SM FEW120 SCT200
     FM242200 31012G20KT P6SM FEW120 BKN200
     FM250100 28012KT P6SM SCT120 BKN200
     FM250300 24008KT P6SM BKN100 OVC200
     FM251300 36015KT P6SM VCSH SCT050 BKN080=



000
FTUS45 KBOU 241120
TAFDEN
TAF
KDEN 241120Z 2412/2518 25013KT P6SM SCT080 BKN200
     FM241500 31020G30KT P6SM FEW120 SCT200
     FM242200 31012G20KT P6SM FEW120 BKN200
     FM250100 28012KT P6SM SCT120 BKN200
     FM250300 24008KT P6SM BKN100 OVC200
     FM251300 36015KT P6SM VCSH SCT050 BKN080=



000
FTUS45 KBOU 240947 AAD
TAFDEN
TAF AMD
KDEN 240947Z 2410/2512 28015KT P6SM VCSH BKN120 BKN200
      TEMPO 2410/2412 28020G30KT
     FM241200 27012G18KT P6SM FEW120 BKN180
     FM241500 31025G35KT P6SM FEW120 SCT200
     FM242200 31012G18KT P6SM FEW150 BKN220
     FM250200 25010KT P6SM SCT120 BKN200
     FM250600 22008KT P6SM BKN100 OVC180=



000
FTUS45 KBOU 240947 AAD
TAFDEN
TAF AMD
KDEN 240947Z 2410/2512 28015KT P6SM VCSH BKN120 BKN200
      TEMPO 2410/2412 28020G30KT
     FM241200 27012G18KT P6SM FEW120 BKN180
     FM241500 31025G35KT P6SM FEW120 SCT200
     FM242200 31012G18KT P6SM FEW150 BKN220
     FM250200 25010KT P6SM SCT120 BKN200
     FM250600 22008KT P6SM BKN100 OVC180=



000
FTUS45 KBOU 240857 AAC
TAFDEN
TAF AMD
KDEN 240857Z 2409/2512 24012KT P6SM VCSH BKN120 BKN200
     FM241200 27012G18KT P6SM FEW120 BKN180
     FM241500 31025G35KT P6SM FEW120 SCT200
     FM242200 31012G18KT P6SM FEW150 BKN220
     FM250200 25010KT P6SM SCT120 BKN200
     FM250600 22008KT P6SM BKN100 OVC180=



000
FTUS45 KBOU 240857 AAC
TAFDEN
TAF AMD
KDEN 240857Z 2409/2512 24012KT P6SM VCSH BKN120 BKN200
     FM241200 27012G18KT P6SM FEW120 BKN180
     FM241500 31025G35KT P6SM FEW120 SCT200
     FM242200 31012G18KT P6SM FEW150 BKN220
     FM250200 25010KT P6SM SCT120 BKN200
     FM250600 22008KT P6SM BKN100 OVC180=



000
FTUS45 KBOU 240856 AAB
TAFBJC
TAF AMD
KBJC 240856Z 2409/2506 28012KT P6SM SCT120 BKN200
     FM241300 28025G32KT P6SM FEW120 SCT200
     FM241800 28018G25KT P6SM FEW120 SCT220
     FM242300 28016KT P6SM FEW180 BKN250
     FM250200 29011KT P6SM SCT120 BKN200=



000
FTUS45 KBOU 240856 AAB
TAFBJC
TAF AMD
KBJC 240856Z 2409/2506 28012KT P6SM SCT120 BKN200
     FM241300 28025G32KT P6SM FEW120 SCT200
     FM241800 28018G25KT P6SM FEW120 SCT220
     FM242300 28016KT P6SM FEW180 BKN250
     FM250200 29011KT P6SM SCT120 BKN200=



000
FTUS45 KBOU 240705 AAB
TAFDEN
TAF AMD
KDEN 240705Z 2407/2512 24012KT P6SM BKN120 BKN200
     FM240800 27012G18KT P6SM VCSH FEW120 BKN180
     FM241500 31025G35KT P6SM FEW120 SCT200
     FM242200 31012G18KT P6SM FEW150 BKN220
     FM250200 25010KT P6SM SCT120 BKN200
     FM250600 22008KT P6SM BKN100 OVC180=



000
FTUS45 KBOU 240705 AAB
TAFDEN
TAF AMD
KDEN 240705Z 2407/2512 24012KT P6SM BKN120 BKN200
     FM240800 27012G18KT P6SM VCSH FEW120 BKN180
     FM241500 31025G35KT P6SM FEW120 SCT200
     FM242200 31012G18KT P6SM FEW150 BKN220
     FM250200 25010KT P6SM SCT120 BKN200
     FM250600 22008KT P6SM BKN100 OVC180=



000
FTUS45 KBOU 240705 AAB
TAFDEN
TAF AMD
KDEN 240705Z 2407/2512 24012KT P6SM BKN120 BKN200
     FM240800 27012G18KT P6SM VCSH FEW120 BKN180
     FM241500 31025G35KT P6SM FEW120 SCT200
     FM242200 31012G18KT P6SM FEW150 BKN220
     FM250200 25010KT P6SM SCT120 BKN200
     FM250600 22008KT P6SM BKN100 OVC180=



000
FTUS45 KBOU 240705 AAB
TAFDEN
TAF AMD
KDEN 240705Z 2407/2512 24012KT P6SM BKN120 BKN200
     FM240800 27012G18KT P6SM VCSH FEW120 BKN180
     FM241500 31025G35KT P6SM FEW120 SCT200
     FM242200 31012G18KT P6SM FEW150 BKN220
     FM250200 25010KT P6SM SCT120 BKN200
     FM250600 22008KT P6SM BKN100 OVC180=



    US Dept of Commerce
    National Oceanic and Atmospheric Administration
    National Weather Service
    1325 East West Highway
    Silver Spring, MD 20910
    Page Author: NWS Internet Services Team
Disclaimer
Information Quality
Credits
Glossary
Privacy Policy
Freedom of Information Act (FOIA)
About Us
Career Opportunities